M I D A S
Marine Information and Data Acquisition System
Tripno 873 of the Zeeleeuw from 2005-03-30 06:33:14 to 2005-03-30 12:54:34
Back to CruiseResearch ActivitiesStationsMapUnderway DataData graphs

EquipmentUnitsComment
TimeDGPSUTC
LatitudeDGPSDM.mWGS84
LongitudeDGPSDM.mWGS84
TemperatureSBE03/SBE38deg celciusITS90
ConductivitySBE21S/mITS90
SalinitySBE21 Practical Salinity Units
ChlorophylAChelsea fluorimeterg/lCalibrated in Aceton
Missing or incorrect values are displayed as -999
Sea surface data collected by the RV Zeeleeuw from 2005-03-30 06:33:59 to 2005-03-30 13:01:34
                                                                                    Next 1000 lines
Time Latitude Longitude Temperature Conductivity Salinity ChlorophylA
2005-03-30 06:34:09 51°13.596 2°56.096 15.9368 0.539199 3.702799 -0.646411
2005-03-30 06:34:14 51°13.598 2°56.093 15.9376 0.539199 3.702656 -0.646411
2005-03-30 06:34:19 51°13.599 2°56.088 15.938 0.539199 3.702584 -0.680121
2005-03-30 06:34:24 51°13.6 2°56.083 15.9388 0.539199 3.702584 -0.680121
2005-03-30 06:34:30 51°13.602 2°56.077 15.9394 0.539199 3.702584 -0.680121
2005-03-30 06:34:34 51°13.603 2°56.072 15.9401 0.53899 3.700982 -0.646411
2005-03-30 06:34:40 51°13.605 2°56.065 15.941 0.539094 3.701747 -0.646411
2005-03-30 06:34:45 51°13.607 2°56.059 15.9415 0.539094 3.701675 -0.680121
2005-03-30 06:34:50 51°13.609 2°56.052 15.9419 0.539199 3.702512 -0.680121
2005-03-30 06:34:54 51°13.611 2°56.045 15.9427 0.539199 3.702512 -0.680121
2005-03-30 06:35:00 51°13.613 2°56.036 15.9431 0.539199 3.70244 -0.680121
2005-03-30 06:35:05 51°13.615 2°56.029 15.9435 0.539199 3.702584 -0.646411
2005-03-30 06:35:10 51°13.617 2°56.021 15.9442 0.539199 3.702512 -0.646411
2005-03-30 06:35:14 51°13.619 2°56.013 15.9443 0.539199 3.702584 -0.646411
2005-03-30 06:35:20 51°13.622 2°56.004 15.9451 0.539199 3.702512 -0.646411
2005-03-30 06:35:25 51°13.624 2°55.995 15.9871 0.539199 3.702512 -0.646411
2005-03-30 06:35:29 51°13.626 2°55.986 16.1383 0.539199 3.70244 -0.646411
2005-03-30 06:35:35 51°13.63 2°55.976 14.6727 0.539199 3.702512 -0.680121
2005-03-30 06:35:40 51°13.633 2°55.967 12.9822 0.539199 3.702512 -0.646411
2005-03-30 06:35:45 51°13.637 2°55.957 11.5881 0.540138 3.730363 14.320563
2005-03-30 06:35:49 51°13.639 2°55.95 10.0406 1.469085 10.285879 9.39899
2005-03-30 06:35:55 51°13.644 2°55.938 9.3712 1.469085 10.285879 9.39899
2005-03-30 06:35:59 51°13.648 2°55.93 9.0241 3.325234 22.438181 6.634819
2005-03-30 06:36:05 51°13.653 2°55.918 8.8263 3.632952 25.280155 5.657247
2005-03-30 06:36:09 51°13.656 2°55.912 8.6451 3.48507 26.099815 5.556118
2005-03-30 06:36:14 51°13.66 2°55.901 8.4899 3.477515 27.820838 4.275161
2005-03-30 06:36:20 51°13.664 2°55.891 8.4087 3.324384 28.005706 4.645965
2005-03-30 06:36:24 51°13.668 2°55.882 8.4069 3.324384 28.005706 4.645965
2005-03-30 06:36:30 51°13.672 2°55.871 8.2353 3.164434 27.416035 5.353862
2005-03-30 06:36:34 51°13.675 2°55.864 8.2148 3.039368 27.010636 5.724665
2005-03-30 06:36:40 51°13.679 2°55.853 8.267 2.968425 26.716079 5.825794
2005-03-30 06:36:45 51°13.683 2°55.844 8.1574 2.928853 26.609517 5.893212
2005-03-30 06:36:50 51°13.686 2°55.834 8.0926 2.893492 26.438113 6.129178
2005-03-30 06:36:55 51°13.689 2°55.825 8.1133 2.893492 26.438113 6.129178
2005-03-30 06:37:00 51°13.691 2°55.815 8.0769 2.898861 26.631355 6.230306
2005-03-30 06:37:05 51°13.694 2°55.805 7.9945 2.895495 26.70719 6.162888
2005-03-30 06:37:09 51°13.696 2°55.796 7.9837 2.89076 26.719587 6.061759
2005-03-30 06:37:14 51°13.698 2°55.787 7.9904 2.891392 26.767398 5.792084
2005-03-30 06:37:20 51°13.7 2°55.776 7.9182 2.88613 26.777152 5.825794
2005-03-30 06:37:25 51°13.701 2°55.77 7.9544 2.88613 26.777152 5.825794
2005-03-30 06:37:30 51°13.702 2°55.765 7.9248 2.892656 26.895146 5.893212
2005-03-30 06:37:35 51°13.703 2°55.761 7.9265 2.891709 26.917798 5.758375
2005-03-30 06:37:40 51°13.704 2°55.759 7.8802 2.8875 26.92672 5.657247
2005-03-30 06:37:45 51°13.705 2°55.759 7.8927 2.891184 26.993965 5.657247
2005-03-30 06:37:49 51°13.706 2°55.759 7.8978 2.879397 26.908995 5.589828
2005-03-30 06:37:55 51°13.707 2°55.761 7.9371 2.879397 26.908995 5.589828
2005-03-30 06:38:00 51°13.709 2°55.762 7.9152 2.883818 26.973088 5.522409
2005-03-30 06:38:05 51°13.709 2°55.762 7.9182 2.881924 26.967639 5.623537
2005-03-30 06:38:09 51°13.71 2°55.762 7.9702 2.864349 26.799148 5.421281
2005-03-30 06:38:15 51°13.71 2°55.761 8.0275 2.857298 26.746791 5.353862
2005-03-30 06:38:20 51°13.71 2°55.759 8.011 2.828254 26.461214 5.252734
2005-03-30 06:38:25 51°13.709 2°55.756 8.0151 2.828254 26.461214 5.252734
2005-03-30 06:38:29 51°13.709 2°55.754 8.0352 2.843091 26.609773 5.050477
2005-03-30 06:38:34 51°13.707 2°55.75 8.0922 2.830674 26.479862 5.050477
2005-03-30 06:38:39 51°13.706 2°55.747 8.083 2.809838 26.257122 4.983059
2005-03-30 06:38:45 51°13.704 2°55.743 8.0779 2.795212 26.090506 4.88193
2005-03-30 06:38:50 51°13.703 2°55.741 8.0846 2.78248 25.9338 4.949349
2005-03-30 06:38:54 51°13.704 2°55.74 8.0659 2.78248 25.9338 4.949349
2005-03-30 06:38:59 51°13.704 2°55.739 8.0287 2.766697 25.764557 4.88193
2005-03-30 06:39:05 51°13.707 2°55.739 8.046 2.723559 25.313795 4.88193
2005-03-30 06:39:10 51°13.71 2°55.739 8.0467 2.715773 25.210284 4.713383
2005-03-30 06:39:14 51°13.713 2°55.738 8.0924 2.6961 25.001174 4.645965
2005-03-30 06:39:20 51°13.717 2°55.736 8.091 2.702096 25.064719 4.747093
2005-03-30 06:39:24 51°13.721 2°55.734 8.0933 2.702096 25.064719 4.747093
2005-03-30 06:39:30 51°13.727 2°55.73 8.1017 2.721981 25.272488 4.679674
2005-03-30 06:39:34 51°13.732 2°55.726 8.1538 2.719771 25.265481 4.780802
2005-03-30 06:39:39 51°13.737 2°55.721 8.1508 2.738814 25.465028 4.88193
2005-03-30 06:39:44 51°13.743 2°55.715 8.1258 2.731976 25.391455 4.88193
2005-03-30 06:39:49 51°13.748 2°55.71 8.1609 2.72945 25.352412 4.88193
2005-03-30 06:39:54 51°13.755 2°55.703 8.1652 2.72945 25.352412 4.88193
2005-03-30 06:40:00 51°13.762 2°55.696 8.1183 2.723559 25.288011 4.88193
2005-03-30 06:40:04 51°13.768 2°55.69 8.1517 2.705463 25.090159 4.88193
2005-03-30 06:40:09 51°13.775 2°55.684 8.1708 2.709776 25.111579 4.814512
2005-03-30 06:40:14 51°13.783 2°55.676 8.1864 2.690839 24.913319 4.848221
2005-03-30 06:40:20 51°13.792 2°55.668 8.1873 2.692207 24.931962 4.848221
2005-03-30 06:40:25 51°13.8 2°55.66 8.1882 2.692207 24.931962 4.848221
2005-03-30 06:40:29 51°13.807 2°55.653 8.2038 2.716825 25.175114 4.780802
2005-03-30 06:40:34 51°13.817 2°55.644 8.1938 2.709145 25.103363 4.983059
2005-03-30 06:40:39 51°13.825 2°55.637 8.1678 2.713458 25.143768 4.88193
2005-03-30 06:40:45 51°13.836 2°55.628 8.2094 2.696731 24.964465 4.848221
2005-03-30 06:40:49 51°13.844 2°55.621 8.1612 2.681581 24.803827 4.848221
2005-03-30 06:40:55 51°13.856 2°55.611 8.2003 2.681581 24.803827 4.848221
2005-03-30 06:40:58 51°13.863 2°55.606 8.2175 2.675269 24.733206 4.848221
2005-03-30 06:41:05 51°13.876 2°55.595 8.1672 2.677689 24.751959 4.88193
2005-03-30 06:41:09 51°13.884 2°55.589 8.1532 2.673271 24.704719 4.88193
2005-03-30 06:41:14 51°13.896 2°55.581 8.1344 2.660963 24.584912 4.780802
2005-03-30 06:41:20 51°13.907 2°55.573 8.0968 2.657912 24.551028 4.814512
2005-03-30 06:41:24 51°13.917 2°55.566 8.0623 2.657912 24.551028 4.814512
2005-03-30 06:41:30 51°13.929 2°55.558 7.9926 2.65423 24.518853 4.848221
2005-03-30 06:41:34 51°13.938 2°55.551 7.9606 2.657702 24.547732 4.780802
2005-03-30 06:41:38 51°13.947 2°55.545 7.9129 2.665276 24.634544 4.91564
2005-03-30 06:41:44 51°13.96 2°55.536 7.8972 2.681161 24.805993 4.983059
2005-03-30 06:41:49 51°13.97 2°55.529 7.8832 2.708198 25.100834 5.219024
2005-03-30 06:41:54 51°13.981 2°55.521 7.865 2.708198 25.100834 5.219024
2005-03-30 06:41:58 51°13.99 2°55.514 7.8374 2.733974 25.388429 5.4887
2005-03-30 06:42:05 51°14.004 2°55.504 7.8505 2.762067 25.712833 5.4887
2005-03-30 06:42:09 51°14.014 2°55.497 7.7831 2.788793 26.020831 5.690956
2005-03-30 06:42:14 51°14.025 2°55.489 7.816 2.813732 26.314719 5.792084
2005-03-30 06:42:19 51°14.036 2°55.481 7.7959 2.832358 26.528769 6.129178
2005-03-30 06:42:25 51°14.048 2°55.473 7.8212 2.832358 26.528769 6.129178
2005-03-30 06:42:29 51°14.056 2°55.466 7.8179 2.84688 26.699029 6.365144
2005-03-30 06:42:34 51°14.068 2°55.457 7.809 2.857404 26.827638 6.5674
2005-03-30 06:42:38 51°14.077 2°55.451 7.7808 2.860562 26.875698 6.735947
2005-03-30 06:42:45 51°14.091 2°55.441 7.7783 2.860246 26.895547 6.904494
2005-03-30 06:42:49 51°14.101 2°55.434 7.7686 2.860036 26.898508 7.106751
2005-03-30 06:42:54 51°14.112 2°55.425 7.8041 2.860036 26.898508 7.106751
2005-03-30 06:42:59 51°14.123 2°55.417 7.7933 2.858668 26.886899 7.275298
2005-03-30 06:43:05 51°14.137 2°55.406 7.756 2.856142 26.86072 7.443845
2005-03-30 06:43:09 51°14.148 2°55.396 7.7605 2.854563 26.846285 7.74723
2005-03-30 06:43:14 51°14.161 2°55.386 7.7417 2.862667 26.942526 7.780939
2005-03-30 06:43:20 51°14.175 2°55.372 7.7549 2.868876 27.015344 7.71352
2005-03-30 06:43:24 51°14.185 2°55.362 7.7396 2.868876 27.015344 7.71352
2005-03-30 06:43:28 51°14.195 2°55.353 7.7182 2.869402 27.021453 7.915777
2005-03-30 06:43:34 51°14.21 2°55.337 7.7513 2.87519 27.084135 7.848358
2005-03-30 06:43:39 51°14.222 2°55.322 7.725 2.876874 27.11395 8.016905
2005-03-30 06:43:45 51°14.234 2°55.306 7.7184 2.865298 27.000175 8.016905
2005-03-30 06:43:50 51°14.245 2°55.29 7.7446 2.876138 27.119933 7.848358
2005-03-30 06:43:54 51°14.255 2°55.275 7.7434 2.876138 27.119933 7.848358
2005-03-30 06:43:59 51°14.265 2°55.258 7.7477 2.862036 26.976632 7.949486
2005-03-30 06:44:04 51°14.275 2°55.24 7.7403 2.860037 26.968137 7.814648
2005-03-30 06:44:09 51°14.285 2°55.222 7.7422 2.865404 27.023274 7.74723
2005-03-30 06:44:14 51°14.295 2°55.203 7.7126 2.853407 26.900537 7.578683
2005-03-30 06:44:19 51°14.304 2°55.183 7.7417 2.8593 26.963067 7.410136
2005-03-30 06:44:25 51°14.314 2°55.161 7.7371 2.8593 26.963067 7.410136
2005-03-30 06:44:29 51°14.323 2°55.143 7.8494 2.858353 26.949993 7.342717
2005-03-30 06:44:34 51°14.332 2°55.122 7.7892 2.856353 26.925344 7.612392
2005-03-30 06:44:39 51°14.341 2°55.1 7.7737 2.879821 27.167336 7.207879
2005-03-30 06:44:45 51°14.351 2°55.077 7.7599 2.889083 27.266287 7.005623
2005-03-30 06:44:49 51°14.36 2°55.057 7.7985 2.890977 27.291233 6.938204
2005-03-30 06:44:54 51°14.369 2°55.035 7.7697 2.890977 27.291233 6.938204
2005-03-30 06:44:59 51°14.377 2°55.015 7.7101 2.892451 27.301988 6.870785
2005-03-30 06:45:04 51°14.388 2°54.992 7.6995 2.887925 27.239225 6.702238
2005-03-30 06:45:09 51°14.397 2°54.972 7.7108 2.894766 27.302526 6.60111
2005-03-30 06:45:14 51°14.409 2°54.948 7.7529 2.896555 27.325714 6.634819
2005-03-30 06:45:19 51°14.422 2°54.928 7.7792 2.90287 27.389442 6.5674
2005-03-30 06:45:25 51°14.436 2°54.907 7.7666 2.90287 27.389442 6.5674
2005-03-30 06:45:29 51°14.449 2°54.891 7.6589 2.908869 27.452526 6.499982
2005-03-30 06:45:34 51°14.463 2°54.876 7.6451 2.918552 27.577766 6.533691
2005-03-30 06:45:39 51°14.478 2°54.863 7.6659 2.918552 27.592321 6.533691
2005-03-30 06:45:45 51°14.496 2°54.847 7.5849 2.939181 27.806868 6.668529
2005-03-30 06:45:50 51°14.512 2°54.834 7.5748 2.953917 27.955357 6.803366
2005-03-30 06:45:54 51°14.527 2°54.823 7.5777 2.953917 27.955357 6.803366
2005-03-30 06:45:59 51°14.544 2°54.81 7.5403 2.968127 28.093012 6.971913
2005-03-30 06:46:05 51°14.562 2°54.796 7.5305 2.980442 28.243364 7.275298
2005-03-30 06:46:10 51°14.579 2°54.784 7.5178 2.9916 28.387356 7.275298
2005-03-30 06:46:14 51°14.594 2°54.773 7.5336 3.006969 28.565567 7.679811
2005-03-30 06:46:20 51°14.613 2°54.759 7.5496 3.022655 28.758504 7.848358
2005-03-30 06:46:25 51°14.629 2°54.746 7.5313 3.022655 28.758504 7.848358
2005-03-30 06:46:29 51°14.643 2°54.735 7.5107 3.037393 28.93501 8.219161
2005-03-30 06:46:35 51°14.663 2°54.719 7.5192 3.050763 29.099578 8.455127
2005-03-30 06:46:40 51°14.679 2°54.705 7.4973 3.060975 29.224836 8.421418
2005-03-30 06:46:44 51°14.694 2°54.692 7.5156 3.067923 29.312297 8.353999
2005-03-30 06:46:49 51°14.711 2°54.677 7.5161 3.075714 29.392438 8.185452
2005-03-30 06:46:54 51°14.728 2°54.663 7.5392 3.075714 29.392438 8.185452
2005-03-30 06:46:59 51°14.745 2°54.648 7.5077 3.094138 29.589249 8.219161
2005-03-30 06:47:05 51°14.763 2°54.633 7.5175 3.112247 29.790116 8.118033
2005-03-30 06:47:09 51°14.777 2°54.622 7.5144 3.12246 29.901842 8.252871
2005-03-30 06:47:14 51°14.796 2°54.606 7.5185 3.137727 30.067207 8.118033
2005-03-30 06:47:19 51°14.813 2°54.593 7.5158 3.145097 30.145338 8.151742
2005-03-30 06:47:25 51°14.832 2°54.578 7.5174 3.145097 30.145338 8.151742
2005-03-30 06:47:29 51°14.845 2°54.567 7.5016 3.152573 30.222422 8.219161
2005-03-30 06:47:34 51°14.864 2°54.552 7.4929 3.159523 30.300527 8.185452
2005-03-30 06:47:39 51°14.881 2°54.538 7.5049 3.163629 30.34337 8.219161
2005-03-30 06:47:44 51°14.898 2°54.524 7.5153 3.16763 30.385835 8.185452
2005-03-30 06:47:48 51°14.912 2°54.513 7.5087 3.172579 30.438369 8.151742
2005-03-30 06:47:54 51°14.932 2°54.496 7.5009 3.172579 30.438369 8.151742
2005-03-30 06:48:00 51°14.951 2°54.481 7.5216 3.177002 30.490484 8.151742
2005-03-30 06:48:04 51°14.966 2°54.468 7.5028 3.180687 30.531843 8.185452
2005-03-30 06:48:09 51°14.981 2°54.456 7.5136 3.183846 30.571315 8.252871
2005-03-30 06:48:14 51°15 2°54.442 7.5075 3.185531 30.587741 8.387708
2005-03-30 06:48:19 51°15.015 2°54.43 7.5017 3.187637 30.605682 8.421418
2005-03-30 06:48:24 51°15.033 2°54.416 7.5029 3.187637 30.605682 8.421418
2005-03-30 06:48:29 51°15.048 2°54.404 7.4811 3.190375 30.632556 8.387708
2005-03-30 06:48:34 51°15.067 2°54.388 7.4912 3.191428 30.643006 8.421418
2005-03-30 06:48:39 51°15.083 2°54.375 7.4948 3.192481 30.654938 8.387708
2005-03-30 06:48:45 51°15.102 2°54.358 7.5095 3.192797 30.659777 8.387708
2005-03-30 06:48:49 51°15.117 2°54.344 7.5013 3.194587 30.683998 8.28658
2005-03-30 06:48:54 51°15.133 2°54.33 7.52 3.194587 30.683998 8.28658
2005-03-30 06:48:59 51°15.15 2°54.314 7.4977 3.195429 30.697407 8.387708
2005-03-30 06:49:05 51°15.168 2°54.297 7.5186 3.197009 30.72089 8.252871
2005-03-30 06:49:09 51°15.181 2°54.285 7.5049 3.198378 30.737682 8.084324
2005-03-30 06:49:14 51°15.199 2°54.269 7.5289 3.201221 30.766441 7.983195
2005-03-30 06:49:19 51°15.217 2°54.254 7.5224 3.203432 30.786245 8.084324
2005-03-30 06:49:25 51°15.236 2°54.239 7.5208 3.203432 30.786245 8.084324
2005-03-30 06:49:29 51°15.249 2°54.228 7.5279 3.205959 30.809408 8.050614
2005-03-30 06:49:34 51°15.268 2°54.213 7.5352 3.20796 30.829949 8.118033
2005-03-30 06:49:39 51°15.286 2°54.2 7.5301 3.208908 30.834812 8.084324
2005-03-30 06:49:45 51°15.305 2°54.185 7.5382 3.209645 30.83818 8.050614
2005-03-30 06:49:49 51°15.321 2°54.173 7.549 3.210803 30.846027 7.882067
2005-03-30 06:49:54 51°15.338 2°54.159 7.5364 3.210803 30.846027 7.882067
2005-03-30 06:49:59 51°15.355 2°54.145 7.5371 3.212278 30.860216 7.915777
2005-03-30 06:50:05 51°15.374 2°54.129 7.5471 3.215437 30.889339 7.915777
2005-03-30 06:50:09 51°15.387 2°54.117 7.5298 3.218806 30.922194 7.679811
2005-03-30 06:50:14 51°15.406 2°54.101 7.5479 3.221123 30.945342 7.74723
2005-03-30 06:50:19 51°15.423 2°54.086 7.5572 3.222808 30.959525 7.814648
2005-03-30 06:50:24 51°15.44 2°54.071 7.5505 3.222808 30.959525 7.814648
2005-03-30 06:50:29 51°15.457 2°54.056 7.5388 3.223861 30.970727 7.443845
2005-03-30 06:50:34 51°15.474 2°54.042 7.5331 3.224703 30.981185 7.477554
2005-03-30 06:50:38 51°15.488 2°54.03 7.5257 3.224493 30.979693 7.207879
2005-03-30 06:50:44 51°15.509 2°54.012 7.5158 3.223019 30.965506 7.14046
2005-03-30 06:50:48 51°15.522 2°54.001 7.5144 3.221123 30.939361 7.106751
2005-03-30 06:50:54 51°15.543 2°53.983 7.522 3.221123 30.939361 7.106751
2005-03-30 06:50:59 51°15.558 2°53.97 7.5092 3.217753 30.897554 6.938204
2005-03-30 06:51:04 51°15.577 2°53.955 7.5031 3.214068 30.865083 6.668529
2005-03-30 06:51:09 51°15.592 2°53.942 7.4996 3.210277 30.829249 6.702238
2005-03-30 06:51:14 51°15.611 2°53.926 7.4967 3.207223 30.802739 6.331435
2005-03-30 06:51:20 51°15.63 2°53.91 7.4703 3.205012 30.78518 6.196597
2005-03-30 06:51:24 51°15.645 2°53.897 7.4703 3.205012 30.78518 6.196597
2005-03-30 06:51:29 51°15.66 2°53.884 7.4593 3.203327 30.770984 5.724665
2005-03-30 06:51:34 51°15.679 2°53.868 7.4496 3.203116 30.77172 5.421281
2005-03-30 06:51:40 51°15.697 2°53.852 7.4518 3.203643 30.783274 5.320153
2005-03-30 06:51:45 51°15.714 2°53.838 7.4514 3.205854 30.814249 5.084187
2005-03-30 06:51:49 51°15.729 2°53.825 7.4545 3.208487 30.851966 5.084187
2005-03-30 06:51:54 51°15.745 2°53.812 7.4455 3.208487 30.851966 5.084187
2005-03-30 06:51:59 51°15.763 2°53.797 7.454 3.210909 30.885972 4.983059
2005-03-30 06:52:05 51°15.782 2°53.781 7.4419 3.212489 30.91327 5.117896
2005-03-30 06:52:08 51°15.793 2°53.772 7.4362 3.213437 30.931606 5.286443
2005-03-30 06:52:14 51°15.813 2°53.754 7.4339 3.214384 30.946204 5.421281
2005-03-30 06:52:19 51°15.83 2°53.74 7.4327 3.214911 30.952567 5.45499
2005-03-30 06:52:25 51°15.848 2°53.724 7.4391 3.214911 30.952567 5.45499
2005-03-30 06:52:29 51°15.864 2°53.712 7.4417 3.215437 30.959679 5.589828
2005-03-30 06:52:34 51°15.88 2°53.698 7.4303 3.215753 30.964548 5.657247
2005-03-30 06:52:39 51°15.897 2°53.684 7.4289 3.215964 30.970545 5.724665
2005-03-30 06:52:44 51°15.914 2°53.67 7.4313 3.21628 30.979168 5.825794
2005-03-30 06:52:49 51°15.931 2°53.655 7.4245 3.21628 30.982172 5.825794
2005-03-30 06:52:54 51°15.948 2°53.641 7.4283 3.21628 30.982172 5.825794
2005-03-30 06:52:59 51°15.965 2°53.627 7.4144 3.215964 30.977301 5.994341
2005-03-30 06:53:05 51°15.983 2°53.611 7.4178 3.215964 30.977301 5.657247
2005-03-30 06:53:09 51°15.996 2°53.599 7.4123 3.215438 30.976191 5.623537
2005-03-30 06:53:14 51°16.015 2°53.584 7.4008 3.214806 30.970953 5.657247
2005-03-30 06:53:18 51°16.029 2°53.572 7.4145 3.214069 30.964592 5.421281
2005-03-30 06:53:24 51°16.049 2°53.556 7.3952 3.214069 30.964592 5.421281
2005-03-30 06:53:29 51°16.064 2°53.543 7.3891 3.213647 30.962351 5.4887
2005-03-30 06:53:34 51°16.083 2°53.528 7.3956 3.212384 30.954876 5.556118
2005-03-30 06:53:40 51°16.101 2°53.513 7.3811 3.211226 30.944019 5.589828
2005-03-30 06:53:44 51°16.116 2°53.5 7.395 3.210067 30.936164 5.657247
2005-03-30 06:53:49 51°16.133 2°53.486 7.3861 3.208909 30.929056 5.825794
2005-03-30 06:53:54 51°16.15 2°53.471 7.3759 3.208909 30.929056 5.825794
2005-03-30 06:53:58 51°16.164 2°53.46 7.3823 3.208172 30.926443 5.994341
2005-03-30 06:54:04 51°16.184 2°53.443 7.3774 3.207119 30.921208 6.331435
2005-03-30 06:54:08 51°16.198 2°53.432 7.3744 3.206908 30.921211 6.432563
2005-03-30 06:54:14 51°16.218 2°53.415 7.3611 3.206803 30.924591 6.668529
2005-03-30 06:54:19 51°16.235 2°53.401 7.3564 3.206698 30.923467 6.870785
2005-03-30 06:54:25 51°16.254 2°53.385 7.3539 3.206698 30.923467 6.870785
2005-03-30 06:54:28 51°16.266 2°53.375 7.3387 3.206382 30.925349 6.803366
2005-03-30 06:54:34 51°16.286 2°53.358 7.3469 3.206382 30.927602 6.803366
2005-03-30 06:54:39 51°16.302 2°53.345 7.3321 3.206277 30.928731 6.837076
2005-03-30 06:54:45 51°16.322 2°53.329 7.3324 3.206172 30.932113 6.904494
2005-03-30 06:54:49 51°16.338 2°53.316 7.3182 3.20575 30.934377 6.735947
2005-03-30 06:54:54 51°16.355 2°53.302 7.3304 3.20575 30.934377 6.735947
2005-03-30 06:54:59 51°16.371 2°53.289 7.3247 3.205435 30.937767 6.735947
2005-03-30 06:55:05 51°16.391 2°53.273 7.3194 3.205329 30.943409 6.702238
2005-03-30 06:55:10 51°16.408 2°53.258 7.3102 3.205013 30.946051 6.60111
2005-03-30 06:55:15 51°16.426 2°53.244 7.3097 3.204487 30.947194 6.634819
2005-03-30 06:55:19 51°16.441 2°53.231 7.3109 3.204171 30.948332 6.870785
2005-03-30 06:55:24 51°16.458 2°53.217 7.2953 3.204171 30.948332 6.870785
2005-03-30 06:55:29 51°16.473 2°53.205 7.2896 3.204277 30.953222 7.073042
2005-03-30 06:55:35 51°16.494 2°53.187 7.2923 3.204066 30.952476 7.073042
2005-03-30 06:55:38 51°16.506 2°53.178 7.287 3.20375 30.953615 7.477554
2005-03-30 06:55:45 51°16.528 2°53.159 7.2756 3.203224 30.952502 7.511264
2005-03-30 06:55:49 51°16.544 2°53.146 7.2701 3.202592 30.950262 7.309007
2005-03-30 06:55:54 51°16.561 2°53.132 7.2809 3.202592 30.950262 7.309007
2005-03-30 06:55:59 51°16.578 2°53.118 7.2729 3.202276 30.947636 7.511264
2005-03-30 06:56:04 51°16.595 2°53.105 7.2686 3.201644 30.951422 7.612392
2005-03-30 06:56:09 51°16.611 2°53.092 7.278 3.200907 30.946548 7.612392
2005-03-30 06:56:14 51°16.629 2°53.077 7.2722 3.200486 30.948068 7.544973
2005-03-30 06:56:20 51°16.648 2°53.061 7.2704 3.200276 30.952599 7.544973
2005-03-30 06:56:24 51°16.664 2°53.049 7.2668 3.200276 30.952599 7.544973
2005-03-30 06:56:29 51°16.681 2°53.035 7.2652 3.20017 30.953733 7.612392
2005-03-30 06:56:34 51°16.698 2°53.021 7.2698 3.200276 30.957124 7.544973
2005-03-30 06:56:39 51°16.716 2°53.007 7.2721 3.200065 30.957131 7.443845
2005-03-30 06:56:44 51°16.733 2°52.993 7.2699 3.19996 30.956003 7.477554
2005-03-30 06:56:49 51°16.75 2°52.979 7.275 3.200486 30.962396 7.477554
2005-03-30 06:56:54 51°16.767 2°52.966 7.2845 3.200486 30.962396 7.477554
2005-03-30 06:56:59 51°16.783 2°52.953 7.2777 3.201118 30.971427 7.275298
2005-03-30 06:57:05 51°16.803 2°52.937 7.2784 3.202382 30.987228 7.207879
2005-03-30 06:57:10 51°16.82 2°52.924 7.2852 3.20354 30.998881 7.275298
2005-03-30 06:57:14 51°16.836 2°52.911 7.2817 3.204593 31.00865 7.073042
2005-03-30 06:57:19 51°16.851 2°52.898 7.2806 3.205962 31.021804 7.039332
2005-03-30 06:57:24 51°16.868 2°52.883 7.2756 3.205962 31.021804 7.039332
2005-03-30 06:57:30 51°16.887 2°52.867 7.278 3.207331 31.033444 6.837076
2005-03-30 06:57:34 51°16.902 2°52.855 7.2841 3.208595 31.046225 6.634819
2005-03-30 06:57:39 51°16.919 2°52.84 7.2854 3.209648 31.055236 6.533691
2005-03-30 06:57:45 51°16.937 2°52.825 7.2919 3.210701 31.066517 6.297725
2005-03-30 06:57:49 51°16.952 2°52.812 7.2918 3.211332 31.072529 6.061759
2005-03-30 06:57:54 51°16.969 2°52.798 7.2968 3.211332 31.072529 6.061759
2005-03-30 06:57:59 51°16.987 2°52.784 7.2917 3.212175 31.084583 5.859503
2005-03-30 06:58:05 51°17.006 2°52.77 7.2903 3.213333 31.096237 5.758375
2005-03-30 06:58:09 51°17.022 2°52.757 7.2869 3.21407 31.10262 5.589828
2005-03-30 06:58:14 51°17.039 2°52.743 7.296 3.21586 31.118011 5.589828
2005-03-30 06:58:18 51°17.053 2°52.732 7.2932 3.217756 31.136045 5.353862
2005-03-30 06:58:24 51°17.073 2°52.715 7.2921 3.217756 31.136045 5.353862
2005-03-30 06:58:29 51°17.089 2°52.703 7.2933 3.220283 31.16009 5.421281
2005-03-30 06:58:34 51°17.108 2°52.687 7.295 3.223021 31.188668 5.589828
2005-03-30 06:58:39 51°17.126 2°52.673 7.2954 3.225022 31.21239 5.825794
2005-03-30 06:58:44 51°17.143 2°52.66 7.3069 3.227444 31.23835 6.061759
2005-03-30 06:58:49 51°17.158 2°52.649 7.296 3.228918 31.253392 6.162888
2005-03-30 06:58:54 51°17.178 2°52.635 7.2835 3.228918 31.253392 6.162888
2005-03-30 06:58:58 51°17.192 2°52.626 7.2829 3.230498 31.267278 6.297725
2005-03-30 06:59:04 51°17.214 2°52.613 7.2805 3.232183 31.286101 6.499982
2005-03-30 06:59:09 51°17.23 2°52.604 7.2768 3.233341 31.29852 6.499982
2005-03-30 06:59:14 51°17.25 2°52.593 7.2771 3.233973 31.303006 6.499982
2005-03-30 06:59:19 51°17.268 2°52.582 7.2704 3.234921 31.311641 6.668529
2005-03-30 06:59:25 51°17.288 2°52.571 7.2657 3.234921 31.311641 6.668529
2005-03-30 06:59:29 51°17.303 2°52.563 7.258 3.235974 31.326745 6.668529
2005-03-30 06:59:34 51°17.323 2°52.552 7.2641 3.236395 31.336605 6.5674
2005-03-30 06:59:39 51°17.342 2°52.543 7.2632 3.237027 31.347199 6.634819
2005-03-30 06:59:45 51°17.362 2°52.535 7.256 3.237975 31.361185 6.634819
2005-03-30 06:59:50 51°17.381 2°52.529 7.2632 3.238186 31.364974 6.668529
2005-03-30 06:59:54 51°17.398 2°52.525 7.2614 3.238186 31.364974 6.668529
2005-03-30 06:59:58 51°17.414 2°52.522 7.2497 3.238502 31.372185 6.634819
2005-03-30 07:00:05 51°17.438 2°52.517 7.2589 3.238396 31.375644 6.735947
2005-03-30 07:00:09 51°17.453 2°52.514 7.2503 3.23787 31.371523 6.634819
2005-03-30 07:00:14 51°17.474 2°52.509 7.2431 3.237343 31.368167 6.499982
2005-03-30 07:00:20 51°17.495 2°52.505 7.2389 3.237238 31.367037 6.432563
2005-03-30 07:00:25 51°17.514 2°52.501 7.2321 3.237238 31.367037 6.432563
2005-03-30 07:00:29 51°17.531 2°52.497 7.2367 3.237133 31.367436 6.432563
2005-03-30 07:00:34 51°17.55 2°52.493 7.2274 3.237027 31.37166 6.331435
2005-03-30 07:00:39 51°17.569 2°52.489 7.2255 3.237133 31.375086 6.196597
2005-03-30 07:00:45 51°17.59 2°52.485 7.2133 3.236922 31.37512 6.230306
2005-03-30 07:00:49 51°17.605 2°52.481 7.2207 3.237027 31.38314 6.095469
2005-03-30 07:00:55 51°17.628 2°52.477 7.216 3.237027 31.38314 6.095469
2005-03-30 07:01:00 51°17.647 2°52.473 7.2148 3.237343 31.391127 6.162888
2005-03-30 07:01:05 51°17.665 2°52.469 7.2117 3.237449 31.396088 6.02805
2005-03-30 07:01:09 51°17.683 2°52.465 7.2151 3.238081 31.405174 6.196597
2005-03-30 07:01:14 51°17.702 2°52.461 7.2123 3.238186 31.411672 6.162888
2005-03-30 07:01:19 51°17.721 2°52.457 7.211 3.238818 31.423063 6.129178
2005-03-30 07:01:24 51°17.739 2°52.452 7.2119 3.238818 31.423063 6.129178
2005-03-30 07:01:29 51°17.758 2°52.446 7.2061 3.238607 31.422334 6.196597
2005-03-30 07:01:34 51°17.777 2°52.441 7.214 3.238713 31.425 6.061759
2005-03-30 07:01:39 51°17.796 2°52.436 7.2033 3.238502 31.427341 6.061759
2005-03-30 07:01:44 51°17.814 2°52.431 7.1904 3.238607 31.42924 5.926922
2005-03-30 07:01:49 51°17.833 2°52.427 7.1715 3.238397 31.427744 5.859503
2005-03-30 07:01:54 51°17.852 2°52.422 7.1601 3.238397 31.427744 5.859503
2005-03-30 07:01:59 51°17.871 2°52.417 7.1592 3.238397 31.426976 5.690956
2005-03-30 07:02:04 51°17.889 2°52.413 7.1389 3.238081 31.425115 5.724665
2005-03-30 07:02:09 51°17.908 2°52.408 7.1236 3.237133 31.414928 5.589828
2005-03-30 07:02:15 51°17.929 2°52.403 7.119 3.23587 31.406714 5.387571
2005-03-30 07:02:19 51°17.944 2°52.4 7.118 3.233342 31.389514 5.387571
2005-03-30 07:02:25 51°17.967 2°52.395 7.1178 3.233342 31.389514 5.387571
2005-03-30 07:02:29 51°17.982 2°52.394 7.1087 3.231026 31.378406 5.421281
2005-03-30 07:02:34 51°18.002 2°52.393 7.1013 3.229762 31.374019 5.556118
2005-03-30 07:02:39 51°18.021 2°52.393 7.0966 3.228393 31.372334 5.724665
2005-03-30 07:02:44 51°18.039 2°52.395 7.0986 3.227235 31.37138 5.893212
2005-03-30 07:02:49 51°18.056 2°52.397 7.091 3.226709 31.374159 6.230306
2005-03-30 07:02:54 51°18.075 2°52.4 7.087 3.226709 31.374159 6.230306
2005-03-30 07:02:58 51°18.092 2°52.403 7.0883 3.225866 31.367391 6.230306
2005-03-30 07:03:05 51°18.116 2°52.407 7.082 3.22534 31.364025 6.365144
2005-03-30 07:03:09 51°18.133 2°52.41 7.0781 3.223339 31.354763 6.533691
2005-03-30 07:03:14 51°18.151 2°52.414 7.079 3.221443 31.340487 6.466272
2005-03-30 07:03:18 51°18.166 2°52.417 7.072 3.219653 31.323503 6.499982
2005-03-30 07:03:24 51°18.188 2°52.421 7.0799 3.219653 31.323503 6.499982
2005-03-30 07:03:30 51°18.209 2°52.424 7.0714 3.217442 31.30505 6.466272
2005-03-30 07:03:34 51°18.226 2°52.427 7.0727 3.216284 31.297172 6.5674
2005-03-30 07:03:38 51°18.241 2°52.43 7.0759 3.215125 31.287758 6.668529
2005-03-30 07:03:44 51°18.263 2°52.434 7.0693 3.214178 31.280613 6.634819
2005-03-30 07:03:49 51°18.28 2°52.437 7.0827 3.213546 31.277639 6.735947
2005-03-30 07:03:54 51°18.299 2°52.44 7.0694 3.213546 31.277639 6.735947
2005-03-30 07:03:59 51°18.32 2°52.444 7.0687 3.212809 31.271228 6.837076
2005-03-30 07:04:05 51°18.34 2°52.447 7.0695 3.212177 31.265952 6.769657
2005-03-30 07:04:09 51°18.357 2°52.449 7.0669 3.211229 31.258804 6.668529
2005-03-30 07:04:14 51°18.376 2°52.453 7.0731 3.210492 31.251626 6.904494
2005-03-30 07:04:20 51°18.396 2°52.457 7.0649 3.209966 31.245951 6.735947
2005-03-30 07:04:25 51°18.415 2°52.459 7.0809 3.209966 31.245951 6.735947
2005-03-30 07:04:29 51°18.432 2°52.461 7.0646 3.209334 31.239141 6.702238
2005-03-30 07:04:34 51°18.451 2°52.464 7.0646 3.209018 31.237269 6.668529
2005-03-30 07:04:39 51°18.468 2°52.467 7.0735 3.208386 31.231991 6.870785
2005-03-30 07:04:44 51°18.488 2°52.472 7.0922 3.207754 31.225181 6.735947
2005-03-30 07:04:49 51°18.506 2°52.48 7.0791 3.207228 31.220272 6.769657
2005-03-30 07:04:54 51°18.523 2°52.491 7.0909 3.207228 31.220272 6.769657
2005-03-30 07:04:59 51°18.539 2°52.505 7.0753 3.206701 31.213832 6.803366
2005-03-30 07:05:05 51°18.555 2°52.523 7.0852 3.205754 31.205149 6.769657
2005-03-30 07:05:09 51°18.567 2°52.539 7.099 3.20449 31.193061 6.837076
2005-03-30 07:05:15 51°18.58 2°52.563 7.0649 3.203437 31.176359 6.735947
2005-03-30 07:05:19 51°18.59 2°52.58 7.0629 3.202489 31.158506 6.803366
2005-03-30 07:05:24 51°18.601 2°52.604 7.0493 3.202489 31.158506 6.803366
2005-03-30 07:05:29 51°18.61 2°52.624 7.0648 3.200488 31.136955 6.735947
2005-03-30 07:05:34 51°18.62 2°52.651 7.0521 3.199119 31.122212 6.735947
2005-03-30 07:05:39 51°18.628 2°52.676 7.0427 3.19775 31.103655 6.702238
2005-03-30 07:05:44 51°18.636 2°52.701 7.0343 3.196487 31.087001 6.634819
2005-03-30 07:05:49 51°18.642 2°52.724 7.0348 3.193223 31.064804 6.769657
2005-03-30 07:05:54 51°18.65 2°52.752 7.0352 3.193223 31.064804 6.769657
2005-03-30 07:05:59 51°18.657 2°52.779 7.0358 3.191538 31.053514 6.769657
2005-03-30 07:06:04 51°18.664 2°52.805 7.04 3.190274 31.043712 6.870785
2005-03-30 07:06:09 51°18.67 2°52.831 7.0337 3.189853 31.043745 6.870785
2005-03-30 07:06:15 51°18.678 2°52.86 7.0336 3.189116 31.041898 7.17417
2005-03-30 07:06:20 51°18.684 2°52.885 7.0347 3.188168 31.040066 7.207879
2005-03-30 07:06:24 51°18.691 2°52.91 7.0313 3.188168 31.040066 7.207879
2005-03-30 07:06:29 51°18.697 2°52.933 7.0266 3.187221 31.032901 7.275298
2005-03-30 07:06:34 51°18.704 2°52.963 7.0276 3.186378 31.024583 7.207879
2005-03-30 07:06:39 51°18.711 2°52.99 7.0373 3.186168 31.022314 7.309007
2005-03-30 07:06:45 51°18.717 2°53.019 7.037 3.185641 31.017401 7.376426
2005-03-30 07:06:50 51°18.723 2°53.046 7.0298 3.181745 30.976936 7.443845
2005-03-30 07:06:54 51°18.727 2°53.071 7.0367 3.181745 30.976936 7.443845
2005-03-30 07:06:59 51°18.732 2°53.098 7.0379 3.184588 31.009859 7.443845
2005-03-30 07:07:04 51°18.737 2°53.125 7.0356 3.183114 30.997777 7.578683
2005-03-30 07:07:09 51°18.741 2°53.15 7.0261 3.181956 30.985292 7.376426
2005-03-30 07:07:14 51°18.746 2°53.18 7.0248 3.180798 30.969766 7.376426
2005-03-30 07:07:20 51°18.752 2°53.21 7.0234 3.179218 30.952745 7.106751
2005-03-30 07:07:24 51°18.756 2°53.235 7.0203 3.179218 30.952745 7.106751
2005-03-30 07:07:29 51°18.76 2°53.263 7.0114 3.177639 30.935725 7.039332
2005-03-30 07:07:34 51°18.765 2°53.29 7.0183 3.176796 30.92589 6.803366
2005-03-30 07:07:40 51°18.77 2°53.32 7.0114 3.174269 30.899422 6.702238
2005-03-30 07:07:44 51°18.774 2°53.345 7.0161 3.175427 30.915696 6.668529
2005-03-30 07:07:49 51°18.779 2°53.37 7.0102 3.174059 30.903224 6.735947
2005-03-30 07:07:54 51°18.784 2°53.399 7.0155 3.174059 30.903224 6.735947
2005-03-30 07:08:00 51°18.79 2°53.43 7.0138 3.173953 30.904366 6.769657
2005-03-30 07:08:05 51°18.794 2°53.457 7.0114 3.172269 30.889247 6.769657
2005-03-30 07:08:09 51°18.798 2°53.482 7.0049 3.167214 30.838575 6.803366
2005-03-30 07:08:14 51°18.803 2°53.509 7.0108 3.169636 30.86543 6.702238
2005-03-30 07:08:19 51°18.808 2°53.537 6.9983 3.168583 30.854841 6.735947
2005-03-30 07:08:25 51°18.814 2°53.566 6.9907 3.168583 30.854841 6.735947
2005-03-30 07:08:29 51°18.818 2°53.588 6.9922 3.167846 30.847656 6.803366
2005-03-30 07:08:34 51°18.824 2°53.618 6.9895 3.166793 30.836309 6.803366
2005-03-30 07:08:38 51°18.829 2°53.639 6.9946 3.231449 31.536395 6.837076
2005-03-30 07:08:45 51°18.837 2°53.673 6.9929 3.161634 30.783745 6.904494
2005-03-30 07:08:50 51°18.843 2°53.7 6.995 3.16395 30.811733 6.870785
2005-03-30 07:08:54 51°18.849 2°53.724 6.9947 3.16395 30.811733 6.870785
2005-03-30 07:09:00 51°18.856 2°53.753 6.9929 3.16195 30.800015 6.870785
2005-03-30 07:09:04 51°18.862 2°53.777 6.9865 3.159739 30.777695 7.039332
2005-03-30 07:09:09 51°18.869 2°53.804 6.9825 3.15858 30.766724 6.803366
2005-03-30 07:09:15 51°18.876 2°53.833 6.9974 3.156896 30.749323 6.803366
2005-03-30 07:09:18 51°18.88 2°53.851 7.0032 3.155316 30.732301 6.769657
2005-03-30 07:09:25 51°18.888 2°53.886 6.9976 3.155316 30.732301 6.769657
2005-03-30 07:09:29 51°18.893 2°53.908 7.0075 3.154158 30.719819 6.60111
2005-03-30 07:09:34 51°18.9 2°53.937 6.9939 3.152895 30.706203 6.499982
2005-03-30 07:09:40 51°18.907 2°53.966 6.9985 3.151526 30.692963 6.432563
2005-03-30 07:09:45 51°18.913 2°53.993 6.9963 3.150157 30.681232 6.264016
2005-03-30 07:09:49 51°18.918 2°54.014 7.0043 3.150473 30.680109 6.264016
2005-03-30 07:09:54 51°18.925 2°54.044 7.0097 3.150473 30.680109 6.264016
2005-03-30 07:10:00 51°18.932 2°54.073 7.0067 3.150578 30.677472 6.230306
2005-03-30 07:10:04 51°18.938 2°54.097 7.0073 3.150789 30.677478 6.230306
2005-03-30 07:10:09 51°18.944 2°54.121 7.0095 3.148683 30.656301 6.365144
2005-03-30 07:10:15 51°18.951 2°54.154 7.0128 3.150052 30.672555 6.331435
2005-03-30 07:10:19 51°18.958 2°54.177 7.0166 3.150367 30.674449 6.264016
2005-03-30 07:10:25 51°18.964 2°54.206 7.0109 3.150367 30.674449 6.264016
2005-03-30 07:10:29 51°18.97 2°54.231 7.0173 3.150789 30.673708 6.162888
2005-03-30 07:10:34 51°18.976 2°54.257 7.0192 3.147946 30.641583 6.230306
2005-03-30 07:10:39 51°18.983 2°54.284 7.0143 3.150367 30.666157 6.162888
2005-03-30 07:10:45 51°18.99 2°54.313 7.0139 3.148999 30.650663 6.129178
2005-03-30 07:10:49 51°18.995 2°54.337 7.0147 3.14942 30.652938 6.264016
2005-03-30 07:10:54 51°19.002 2°54.364 7.0085 3.14942 30.652938 6.264016
2005-03-30 07:10:59 51°19.008 2°54.391 7.0163 3.149209 30.649164 6.196597
2005-03-30 07:11:04 51°19.014 2°54.417 7.0111 3.147946 30.63556 6.264016
2005-03-30 07:11:10 51°19.021 2°54.446 7.0133 3.148156 30.636322 6.230306
2005-03-30 07:11:14 51°19.027 2°54.47 7.0275 3.144155 30.594751 6.162888
2005-03-30 07:11:20 51°19.034 2°54.499 7.0165 3.142576 30.576998 6.129178
2005-03-30 07:11:25 51°19.039 2°54.526 7.0151 3.142576 30.576998 6.129178
2005-03-30 07:11:28 51°19.044 2°54.544 7.0154 3.145945 30.614773 6.162888
2005-03-30 07:11:34 51°19.051 2°54.574 7.0109 3.144997 30.603819 6.230306
2005-03-30 07:11:40 51°19.058 2°54.606 7.0185 3.144682 30.60117 6.230306
2005-03-30 07:11:45 51°19.064 2°54.633 7.0195 3.14405 30.593617 6.331435
2005-03-30 07:11:49 51°19.069 2°54.654 7.0197 3.143102 30.582665 6.365144
2005-03-30 07:11:54 51°19.075 2°54.684 7.0191 3.143102 30.582665 6.365144
2005-03-30 07:11:59 51°19.081 2°54.711 7.0225 3.13889 30.536584 6.264016
2005-03-30 07:12:05 51°19.088 2°54.74 7.0196 3.140154 30.551683 6.196597
2005-03-30 07:12:09 51°19.093 2°54.764 7.0184 3.138575 30.535435 6.162888
2005-03-30 07:12:14 51°19.099 2°54.791 7.0203 3.140786 30.558482 6.162888
2005-03-30 07:12:19 51°19.106 2°54.818 7.0216 3.140786 30.555479 5.960631
2005-03-30 07:12:25 51°19.112 2°54.846 7.0259 3.140786 30.555479 5.960631
2005-03-30 07:12:29 51°19.117 2°54.868 7.0184 3.139627 30.543015 6.02805
2005-03-30 07:12:34 51°19.124 2°54.897 7.0267 3.139417 30.539248 6.02805
2005-03-30 07:12:38 51°19.128 2°54.918 7.0261 3.138785 30.5332 6.02805
2005-03-30 07:12:45 51°19.136 2°54.953 7.0285 3.137838 30.523003 6.061759
2005-03-30 07:12:49 51°19.141 2°54.974 7.0289 3.137311 30.518088 5.994341
2005-03-30 07:12:54 51°19.148 2°55.004 7.0279 3.137311 30.518088 5.994341
2005-03-30 07:12:59 51°19.153 2°55.028 7.0338 3.136679 30.509791 5.960631
2005-03-30 07:13:04 51°19.16 2°55.057 7.0318 3.135521 30.498078 5.825794
2005-03-30 07:13:10 51°19.166 2°55.086 7.0421 3.132784 30.465632 5.825794
2005-03-30 07:13:14 51°19.172 2°55.11 7.042 3.132362 30.458109 5.657247
2005-03-30 07:13:18 51°19.176 2°55.131 7.0406 3.133942 30.4736 5.556118
2005-03-30 07:13:25 51°19.183 2°55.166 7.0373 3.133942 30.4736 5.556118
2005-03-30 07:13:29 51°19.189 2°55.19 7.0414 3.129519 30.42604 5.421281
2005-03-30 07:13:34 51°19.195 2°55.216 7.0412 3.13152 30.445311 5.320153
2005-03-30 07:13:39 51°19.2 2°55.243 7.0482 3.130888 30.43777 5.151606
2005-03-30 07:13:45 51°19.207 2°55.272 7.0416 3.130467 30.42801 5.117896
2005-03-30 07:13:50 51°19.212 2°55.299 7.0422 3.128045 30.399737 4.91564
2005-03-30 07:13:54 51°19.218 2°55.323 7.0378 3.128045 30.399737 4.91564
2005-03-30 07:13:58 51°19.223 2°55.344 7.0401 3.125097 30.368795 4.91564
2005-03-30 07:14:05 51°19.231 2°55.379 7.0361 3.127098 30.389551 4.949349
2005-03-30 07:14:09 51°19.236 2°55.403 7.0363 3.126992 30.38842 4.91564
2005-03-30 07:14:14 51°19.242 2°55.429 7.0399 3.122254 30.336753 4.949349
2005-03-30 07:14:19 51°19.248 2°55.456 7.0409 3.123097 30.345805 4.848221
2005-03-30 07:14:24 51°19.254 2°55.482 7.0387 3.123097 30.345805 4.848221
2005-03-30 07:14:30 51°19.26 2°55.512 7.041 3.123518 30.350331 4.814512
2005-03-30 07:14:34 51°19.266 2°55.535 7.0428 3.12415 30.359356 4.949349
2005-03-30 07:14:40 51°19.272 2°55.565 7.0376 3.123307 30.351793 4.983059
2005-03-30 07:14:45 51°19.279 2°55.591 7.0423 3.118885 30.30427 5.050477
2005-03-30 07:14:49 51°19.284 2°55.613 7.0458 3.12257 30.344617 5.084187
2005-03-30 07:14:54 51°19.29 2°55.642 7.0503 3.12257 30.344617 5.084187
2005-03-30 07:14:58 51°19.295 2°55.663 7.0472 3.121833 30.335951 5.117896
2005-03-30 07:15:04 51°19.302 2°55.695 7.0507 3.121517 30.331067 5.050477
2005-03-30 07:15:09 51°19.308 2°55.719 7.0534 3.121412 30.327702 5.117896
2005-03-30 07:15:14 51°19.314 2°55.748 7.0586 3.12078 30.320914 5.219024
2005-03-30 07:15:20 51°19.321 2°55.778 7.0572 3.120359 30.3149 5.117896
2005-03-30 07:15:24 51°19.326 2°55.802 7.0547 3.120359 30.3149 5.117896
2005-03-30 07:15:29 51°19.331 2°55.826 7.0483 3.120149 30.310405 5.117896
2005-03-30 07:15:34 51°19.338 2°55.855 7.0624 3.120043 30.30853 5.050477
2005-03-30 07:15:39 51°19.344 2°55.882 7.0573 3.117411 30.278767 5.016768
2005-03-30 07:15:45 51°19.351 2°55.911 7.0552 3.119833 30.301062 5.016768
2005-03-30 07:15:49 51°19.356 2°55.935 7.0553 3.119517 30.296926 5.016768
2005-03-30 07:15:54 51°19.362 2°55.962 7.0528 3.119517 30.296926 5.016768
2005-03-30 07:16:00 51°19.368 2°55.992 7.0521 3.119517 30.296182 5.084187
2005-03-30 07:16:05 51°19.375 2°56.018 7.0597 3.118885 30.290884 5.286443
2005-03-30 07:16:09 51°19.38 2°56.042 7.0571 3.11899 30.289785 5.387571
2005-03-30 07:16:14 51°19.386 2°56.069 7.0587 3.118885 30.288654 5.320153
2005-03-30 07:16:18 51°19.391 2°56.09 7.0582 3.118043 30.280351 5.387571
2005-03-30 07:16:24 51°19.398 2°56.122 7.0532 3.118043 30.280351 5.387571
2005-03-30 07:16:29 51°19.404 2°56.149 7.0611 3.118359 30.284486 5.320153
2005-03-30 07:16:35 51°19.411 2°56.179 7.0626 3.117832 30.280318 5.151606
2005-03-30 07:16:38 51°19.415 2°56.197 7.0603 3.117727 30.276958 5.084187
2005-03-30 07:16:44 51°19.421 2°56.23 7.0577 3.117832 30.278832 4.983059
2005-03-30 07:16:49 51°19.427 2°56.253 7.0606 3.117622 30.275085 5.016768
2005-03-30 07:16:54 51°19.433 2°56.283 7.0612 3.117622 30.275085 5.016768
2005-03-30 07:16:59 51°19.439 2°56.31 7.0611 3.117622 30.275828 5.016768
2005-03-30 07:17:04 51°19.445 2°56.337 7.0662 3.117937 30.276991 4.88193
2005-03-30 07:17:09 51°19.451 2°56.364 7.063 3.118464 30.281902 4.780802
2005-03-30 07:17:14 51°19.457 2°56.39 7.0675 3.118569 30.283032 4.848221
2005-03-30 07:17:18 51°19.463 2°56.411 7.0772 3.118674 30.284163 4.780802
2005-03-30 07:17:24 51°19.47 2°56.443 7.0672 3.118674 30.284163 4.780802
2005-03-30 07:17:29 51°19.476 2°56.47 7.0764 3.119201 30.289073 4.612255
2005-03-30 07:17:34 51°19.482 2°56.497 7.0644 3.119201 30.28833 4.578546
2005-03-30 07:17:39 51°19.488 2°56.523 7.0688 3.119411 30.289848 4.511127
2005-03-30 07:17:44 51°19.494 2°56.55 7.0674 3.118253 30.275926 4.409999
2005-03-30 07:17:49 51°19.5 2°56.574 7.0677 3.119622 30.286908 4.34258
2005-03-30 07:17:54 51°19.506 2°56.603 7.0693 3.119622 30.286908 4.34258
2005-03-30 07:17:58 51°19.511 2°56.624 7.0678 3.120043 30.29143 4.308871
2005-03-30 07:18:04 51°19.518 2°56.657 7.071 3.119622 30.286165 4.34258
2005-03-30 07:18:10 51°19.524 2°56.686 7.071 3.119622 30.288394 4.275161
2005-03-30 07:18:14 51°19.53 2°56.71 7.0711 3.117727 30.267303 4.308871
2005-03-30 07:18:19 51°19.535 2°56.737 7.0688 3.12057 30.297083 4.174033
2005-03-30 07:18:24 51°19.541 2°56.764 7.069 3.12057 30.297083 4.174033
2005-03-30 07:18:29 51°19.546 2°56.788 7.0701 3.121096 30.303479 4.207742
2005-03-30 07:18:34 51°19.553 2°56.817 7.0712 3.122044 30.312167 4.308871
2005-03-30 07:18:40 51°19.559 2°56.847 7.0688 3.122886 30.319725 4.308871
2005-03-30 07:18:45 51°19.565 2°56.873 7.0706 3.123623 30.327639 4.409999
2005-03-30 07:18:49 51°19.57 2°56.894 7.07 3.120254 30.292205 4.511127
2005-03-30 07:18:54 51°19.577 2°56.923 7.0771 3.120254 30.292205 4.511127
2005-03-30 07:18:58 51°19.582 2°56.944 7.0771 3.121517 30.306514 4.477418
2005-03-30 07:19:04 51°19.59 2°56.976 7.0791 3.126255 30.35814 4.544836
2005-03-30 07:19:09 51°19.596 2°56.999 7.0784 3.127308 30.370193 4.544836
2005-03-30 07:19:14 51°19.603 2°57.028 7.0803 3.125202 30.346831 4.544836
2005-03-30 07:19:20 51°19.61 2°57.057 7.0784 3.125097 30.344956 4.578546
2005-03-30 07:19:25 51°19.617 2°57.083 7.0824 3.125097 30.344956 4.578546
2005-03-30 07:19:29 51°19.622 2°57.104 7.0811 3.128993 30.384562 4.544836
2005-03-30 07:19:34 51°19.628 2°57.133 7.0762 3.129308 30.385719 4.612255
2005-03-30 07:19:39 51°19.635 2°57.16 7.0776 3.129308 30.384973 4.578546
2005-03-30 07:19:45 51°19.641 2°57.189 7.0776 3.125939 30.347303 4.578546
2005-03-30 07:19:49 51°19.647 2°57.21 7.0797 3.128887 30.37747 4.679674
2005-03-30 07:19:54 51°19.653 2°57.239 7.0758 3.128887 30.37747 4.679674
2005-03-30 07:19:59 51°19.66 2°57.266 7.0779 3.128256 30.370687 4.645965
2005-03-30 07:20:05 51°19.667 2°57.294 7.081 3.130888 30.397463 4.612255
2005-03-30 07:20:09 51°19.674 2°57.318 7.0854 3.130782 30.398568 4.612255
2005-03-30 07:20:14 51°19.681 2°57.344 7.0916 3.130993 30.40083 4.612255
2005-03-30 07:20:19 51°19.688 2°57.371 7.0938 3.127097 30.359739 4.679674
2005-03-30 07:20:24 51°19.694 2°57.397 7.0952 3.127097 30.359739 4.679674
2005-03-30 07:20:29 51°19.7 2°57.421 7.1041 3.132257 30.415892 4.780802
2005-03-30 07:20:34 51°19.708 2°57.45 7.1094 3.133836 30.432856 4.848221
2005-03-30 07:20:38 51°19.713 2°57.471 7.1112 3.135731 30.450975 4.88193
2005-03-30 07:20:45 51°19.722 2°57.506 7.1189 3.138679 30.479656 4.91564
2005-03-30 07:20:49 51°19.727 2°57.527 7.114 3.141206 30.502316 5.016768
2005-03-30 07:20:54 51°19.734 2°57.557 7.1203 3.141206 30.502316 5.016768
2005-03-30 07:20:58 51°19.739 2°57.578 7.1208 3.141943 30.507989 5.050477
2005-03-30 07:21:05 51°19.747 2°57.612 7.1228 3.149629 30.586069 5.050477
2005-03-30 07:21:09 51°19.752 2°57.634 7.1224 3.152367 30.610231 5.151606
2005-03-30 07:21:14 51°19.76 2°57.663 7.1243 3.150472 30.585373 5.185315
2005-03-30 07:21:20 51°19.767 2°57.692 7.1216 3.157526 30.656652 5.252734
2005-03-30 07:21:25 51°19.774 2°57.719 7.1234 3.157526 30.656652 5.252734
2005-03-30 07:21:29 51°19.78 2°57.743 7.1267 3.158053 30.660805 5.353862
2005-03-30 07:21:34 51°19.786 2°57.769 7.1286 3.157105 30.646871 5.421281
2005-03-30 07:21:38 51°19.791 2°57.79 7.1272 3.161527 30.693624 5.522409
2005-03-30 07:21:45 51°19.8 2°57.825 7.1256 3.158263 30.65781 5.623537
2005-03-30 07:21:49 51°19.805 2°57.846 7.124 3.161949 30.696645 5.421281
2005-03-30 07:21:54 51°19.812 2°57.876 7.1229 3.161949 30.696645 5.421281
2005-03-30 07:21:58 51°19.818 2°57.897 7.125 3.157526 30.649143 5.556118
2005-03-30 07:22:05 51°19.826 2°57.931 7.1245 3.161212 30.687224 5.421281
2005-03-30 07:22:09 51°19.833 2°57.955 7.1208 3.160896 30.682328 5.353862
2005-03-30 07:22:14 51°19.839 2°57.981 7.1219 3.161001 30.68421 5.320153
2005-03-30 07:22:19 51°19.846 2°58.008 7.1207 3.160685 30.679314 5.387571
2005-03-30 07:22:24 51°19.852 2°58.034 7.1197 3.160685 30.679314 5.387571
2005-03-30 07:22:30 51°19.86 2°58.063 7.1218 3.156684 30.638595 5.252734
2005-03-30 07:22:34 51°19.866 2°58.087 7.1214 3.155631 30.627288 5.320153
2005-03-30 07:22:40 51°19.873 2°58.116 7.1213 3.158895 30.662343 5.45499
2005-03-30 07:22:45 51°19.88 2°58.142 7.1223 3.158369 30.657439 5.421281
2005-03-30 07:22:49 51°19.885 2°58.163 7.1161 3.154999 30.622003 5.556118
2005-03-30 07:22:55 51°19.893 2°58.196 7.1174 3.154999 30.622003 5.556118
2005-03-30 07:22:58 51°19.898 2°58.214 7.1164 3.152788 30.599758 5.556118
2005-03-30 07:23:04 51°19.907 2°58.245 7.1154 3.154157 30.613707 5.522409
2005-03-30 07:23:09 51°19.914 2°58.268 7.1194 3.153946 30.611446 5.589828
2005-03-30 07:23:14 51°19.923 2°58.296 7.121 3.152577 30.596747 5.556118
2005-03-30 07:23:20 51°19.932 2°58.324 7.1133 3.147208 30.53984 5.657247
2005-03-30 07:23:24 51°19.939 2°58.346 7.1138 3.147208 30.53984 5.657247
2005-03-30 07:23:28 51°19.946 2°58.367 7.1173 3.149524 30.566207 5.623537
2005-03-30 07:23:34 51°19.956 2°58.397 7.1198 3.146155 30.530033 5.657247
2005-03-30 07:23:38 51°19.962 2°58.418 7.1219 3.147734 30.547737 5.589828
2005-03-30 07:23:45 51°19.972 2°58.451 7.1165 3.146892 30.537945 5.556118
2005-03-30 07:23:49 51°19.979 2°58.475 7.1132 3.14268 30.494975 5.522409
2005-03-30 07:23:54 51°19.986 2°58.501 7.1128 3.14268 30.494975 5.522409
2005-03-30 07:24:00 51°19.995 2°58.529 7.1156 3.144575 30.516068 5.556118
2005-03-30 07:24:04 51°20.001 2°58.553 7.1129 3.139521 30.461069 5.421281
2005-03-30 07:24:10 51°20.009 2°58.581 7.1075 3.143101 30.498002 5.353862
2005-03-30 07:24:14 51°20.016 2°58.605 7.1129 3.142154 30.487083 5.320153
2005-03-30 07:24:19 51°20.023 2°58.631 7.1063 3.141416 30.479919 5.353862
2005-03-30 07:24:25 51°20.031 2°58.659 7.1078 3.141416 30.479919 5.353862
2005-03-30 07:24:30 51°20.038 2°58.685 7.1071 3.136994 30.434695 5.219024
2005-03-30 07:24:34 51°20.044 2°58.709 7.1042 3.138995 30.454673 5.219024
2005-03-30 07:24:39 51°20.051 2°58.735 7.1033 3.138152 30.449362 5.320153
2005-03-30 07:24:45 51°20.059 2°58.764 7.0889 3.132783 30.393223 5.219024
2005-03-30 07:24:49 51°20.065 2°58.785 7.09 3.132467 30.390578 5.320153
2005-03-30 07:24:54 51°20.073 2°58.813 7.0842 3.132467 30.390578 5.320153
2005-03-30 07:24:58 51°20.079 2°58.834 7.0822 3.133941 30.407887 5.117896
2005-03-30 07:25:04 51°20.088 2°58.865 7.0821 3.128992 30.354782 5.117896
2005-03-30 07:25:09 51°20.095 2°58.891 7.0786 3.12815 30.347975 5.084187
2005-03-30 07:25:15 51°20.103 2°58.92 7.0741 3.12815 30.351693 5.016768
2005-03-30 07:25:19 51°20.11 2°58.943 7.0721 3.124991 30.323743 5.117896
2005-03-30 07:25:24 51°20.117 2°58.968 7.0679 3.124991 30.323743 5.117896
2005-03-30 07:25:29 51°20.124 2°58.991 7.0627 3.121517 30.290912 5.117896
2005-03-30 07:25:34 51°20.132 2°59.02 7.0642 3.118253 30.258111 5.185315
2005-03-30 07:25:40 51°20.14 2°59.048 7.0598 3.1152 30.22757 5.151606
2005-03-30 07:25:45 51°20.147 2°59.074 7.0533 3.111199 30.187604 5.050477
2005-03-30 07:25:49 51°20.153 2°59.094 7.0543 3.106461 30.138991 4.983059
2005-03-30 07:25:54 51°20.161 2°59.123 7.059 3.106461 30.138991 4.983059
2005-03-30 07:25:59 51°20.168 2°59.149 7.0488 3.103092 30.106542 4.814512
2005-03-30 07:26:04 51°20.175 2°59.175 7.0515 3.099934 30.076349 4.747093
2005-03-30 07:26:10 51°20.183 2°59.203 7.0475 3.096564 30.042421 4.679674
2005-03-30 07:26:14 51°20.19 2°59.227 7.0529 3.094354 30.020916 4.612255
2005-03-30 07:26:19 51°20.197 2°59.253 7.0489 3.090142 29.980163 4.645965
2005-03-30 07:26:25 51°20.205 2°59.28 7.0418 3.090142 29.980163 4.645965
2005-03-30 07:26:29 51°20.211 2°59.301 7.0431 3.089405 29.972259 4.544836
2005-03-30 07:26:34 51°20.219 2°59.329 7.0412 3.08751 29.955609 4.645965
2005-03-30 07:26:38 51°20.225 2°59.349 7.0391 3.085405 29.93523 4.747093
2005-03-30 07:26:44 51°20.234 2°59.38 7.0345 3.082562 29.907681 4.679674
2005-03-30 07:26:49 51°20.24 2°59.403 7.0298 3.077719 29.855747 4.713383
2005-03-30 07:26:55 51°20.249 2°59.434 7.0319 3.077719 29.855747 4.713383
2005-03-30 07:26:58 51°20.254 2°59.452 7.0339 3.074771 29.824141 4.645965
2005-03-30 07:27:04 51°20.263 2°59.482 7.0307 3.075719 29.835764 4.612255
2005-03-30 07:27:09 51°20.269 2°59.505 7.0261 3.073613 29.815384 4.578546
2005-03-30 07:27:14 51°20.277 2°59.533 7.0237 3.067718 29.753643 4.612255
2005-03-30 07:27:19 51°20.284 2°59.559 7.0189 3.068876 29.770441 4.544836
2005-03-30 07:27:25 51°20.292 2°59.588 7.0153 3.068876 29.770441 4.544836
2005-03-30 07:27:29 51°20.298 2°59.608 7.0171 3.067613 29.759089 4.511127
2005-03-30 07:27:34 51°20.305 2°59.635 7.0161 3.063191 29.713146 4.511127
2005-03-30 07:27:39 51°20.313 2°59.661 7.0151 3.060348 29.683405 4.544836
2005-03-30 07:27:44 51°20.32 2°59.686 7.01 3.061296 29.697208 4.544836
2005-03-30 07:27:49 51°20.326 2°59.709 7.0077 3.058664 29.67118 4.544836
2005-03-30 07:27:54 51°20.334 2°59.737 7.006 3.058664 29.67118 4.544836
2005-03-30 07:28:00 51°20.342 2°59.765 7.0125 3.056453 29.651122 4.578546
2005-03-30 07:28:05 51°20.349 2°59.79 6.9961 3.050663 29.589786 4.612255
2005-03-30 07:28:09 51°20.354 2°59.811 6.9948 3.053611 29.622836 4.645965
2005-03-30 07:28:14 51°20.362 2°59.839 6.9957 3.049611 29.582863 4.612255
2005-03-30 07:28:19 51°20.369 2°59.865 6.9841 3.050663 29.595602 4.747093
2005-03-30 07:28:24 51°20.376 2°59.891 6.9944 3.050663 29.595602 4.747093
2005-03-30 07:28:30 51°20.383 2°59.919 6.9862 3.046768 29.556029 4.713383
2005-03-30 07:28:34 51°20.39 2°59.942 6.9766 3.048663 29.577068 4.780802
2005-03-30 07:28:39 51°20.397 2°59.968 6.9675 3.046242 29.556197 4.780802
2005-03-30 07:28:45 51°20.404 2°59.996 6.9792 3.045189 29.549269 4.780802
2005-03-30 07:28:49 51°20.41 3°0.016 6.9645 3.042978 29.527745 4.88193
2005-03-30 07:28:54 51°20.418 3°0.045 6.9654 3.042978 29.527745 4.88193
2005-03-30 07:28:58 51°20.424 3°0.065 6.9664 3.042242 29.522748 4.91564
2005-03-30 07:29:04 51°20.432 3°0.096 6.9536 3.041294 29.513315 4.88193
2005-03-30 07:29:09 51°20.439 3°0.118 6.9498 3.035504 29.457764 4.949349
2005-03-30 07:29:14 51°20.446 3°0.146 6.9485 3.037504 29.483558 4.983059
2005-03-30 07:29:20 51°20.454 3°0.174 6.9473 3.035399 29.464605 5.016768
2005-03-30 07:29:24 51°20.46 3°0.197 6.9355 3.035399 29.464605 5.016768
2005-03-30 07:29:29 51°20.466 3°0.22 6.9318 3.035083 29.464842 5.084187
2005-03-30 07:29:34 51°20.474 3°0.248 6.9442 3.034136 29.457579 5.050477
2005-03-30 07:29:39 51°20.48 3°0.275 6.934 3.028451 29.400956 5.151606
2005-03-30 07:29:44 51°20.487 3°0.3 6.9268 3.026451 29.384569 5.219024
2005-03-30 07:29:49 51°20.492 3°0.323 6.9145 3.028662 29.411899 5.219024
2005-03-30 07:29:54 51°20.5 3°0.351 6.9161 3.028662 29.411899 5.219024
2005-03-30 07:30:00 51°20.506 3°0.379 6.9107 3.028241 29.411726 5.219024
2005-03-30 07:30:05 51°20.513 3°0.405 6.9057 3.027083 29.403645 5.320153
2005-03-30 07:30:09 51°20.518 3°0.425 6.9029 3.022451 29.353951 5.286443
2005-03-30 07:30:14 51°20.526 3°0.453 6.8932 3.024872 29.385715 5.219024
2005-03-30 07:30:20 51°20.533 3°0.481 6.8905 3.02203 29.361724 5.286443
2005-03-30 07:30:24 51°20.539 3°0.504 6.8894 3.02203 29.361724 5.286443
2005-03-30 07:30:29 51°20.545 3°0.527 6.8951 3.020662 29.352099 5.252734
2005-03-30 07:30:34 51°20.552 3°0.555 6.8919 3.020135 29.350789 5.320153
2005-03-30 07:30:39 51°20.559 3°0.581 6.8829 3.019083 29.341658 5.286443
2005-03-30 07:30:45 51°20.565 3°0.609 6.881 3.017293 29.327508 5.252734
2005-03-30 07:30:49 51°20.571 3°0.632 6.8821 3.013082 29.289527 5.286443
2005-03-30 07:30:54 51°20.578 3°0.657 6.8757 3.013082 29.289527 5.286443
2005-03-30 07:30:58 51°20.583 3°0.677 6.8713 3.010767 29.266829 5.286443
2005-03-30 07:31:05 51°20.592 3°0.709 6.8737 3.013293 29.293954 5.117896
2005-03-30 07:31:09 51°20.596 3°0.73 6.8776 3.01224 29.283373 5.252734
2005-03-30 07:31:14 51°20.604 3°0.758 6.8724 3.010346 29.268082 5.252734
2005-03-30 07:31:18 51°20.609 3°0.778 6.8697 3.004451 29.208394 5.185315
2005-03-30 07:31:24 51°20.617 3°0.808 6.8739 3.004451 29.208394 5.185315
2005-03-30 07:31:29 51°20.622 3°0.832 6.8746 3.007819 29.245283 5.219024
2005-03-30 07:31:35 51°20.63 3°0.863 6.8795 3.002451 29.189802 5.219024
2005-03-30 07:31:39 51°20.635 3°0.886 6.8759 3.001503 29.181791 5.185315
2005-03-30 07:31:45 51°20.642 3°0.913 6.8622 2.999819 29.165148 5.185315
2005-03-30 07:31:49 51°20.648 3°0.936 6.8611 3.002872 29.200085 5.151606
2005-03-30 07:31:54 51°20.654 3°0.961 6.8589 3.002872 29.200085 5.151606
2005-03-30 07:31:59 51°20.661 3°0.987 6.862 3.002556 29.195974 5.084187
2005-03-30 07:32:04 51°20.667 3°1.012 6.8701 2.997924 29.145525 5.151606
2005-03-30 07:32:10 51°20.674 3°1.04 6.8568 3.000977 29.178299 5.117896
2005-03-30 07:32:14 51°20.679 3°1.063 6.8616 3.001609 29.186521 5.219024
2005-03-30 07:32:19 51°20.686 3°1.089 6.8652 2.999503 29.168954 5.151606
2005-03-30 07:32:25 51°20.693 3°1.117 6.865 2.999503 29.168954 5.151606
2005-03-30 07:32:29 51°20.698 3°1.141 6.8608 2.998661 29.162789 5.219024
2005-03-30 07:32:35 51°20.705 3°1.169 6.8564 2.995714 29.132576 5.219024
2005-03-30 07:32:39 51°20.71 3°1.189 6.8648 2.999819 29.174505 5.185315
2005-03-30 07:32:44 51°20.717 3°1.216 6.8711 2.999714 29.175534 5.185315
2005-03-30 07:32:49 51°20.723 3°1.242 6.8668 2.997924 29.156315 5.219024
2005-03-30 07:32:54 51°20.729 3°1.267 6.868 2.997924 29.156315 5.219024
2005-03-30 07:32:59 51°20.735 3°1.293 6.8618 2.999293 29.170292 5.219024
2005-03-30 07:33:05 51°20.741 3°1.32 6.8596 2.996556 29.1409 5.084187
2005-03-30 07:33:09 51°20.746 3°1.343 6.8608 2.998451 29.163407 5.084187
2005-03-30 07:33:14 51°20.752 3°1.368 6.8625 2.995924 29.133399 5.117896
2005-03-30 07:33:19 51°20.758 3°1.394 6.8606 2.99803 29.153848 5.185315
2005-03-30 07:33:24 51°20.764 3°1.419 6.8641 2.99803 29.153848 5.185315
2005-03-30 07:33:29 51°20.77 3°1.444 6.8628 2.996345 29.135044 5.117896
2005-03-30 07:33:34 51°20.776 3°1.469 6.8596 2.99824 29.156828 5.084187
2005-03-30 07:33:39 51°20.782 3°1.493 6.8641 2.997924 29.154876 5.117896
2005-03-30 07:33:44 51°20.788 3°1.52 6.8621 2.995188 29.125487 5.016768
2005-03-30 07:33:49 51°20.795 3°1.546 6.8628 2.993188 29.105449 4.949349
2005-03-30 07:33:54 51°20.8 3°1.571 6.8686 2.993188 29.105449 4.949349
2005-03-30 07:33:59 51°20.807 3°1.597 6.8748 2.993609 29.109252 4.983059
2005-03-30 07:34:04 51°20.813 3°1.622 6.8727 2.99624 29.13679 4.983059
2005-03-30 07:34:10 51°20.82 3°1.65 6.8731 2.997082 29.147272 4.949349
2005-03-30 07:34:14 51°20.826 3°1.673 6.8666 2.993609 29.10997 4.983059
2005-03-30 07:34:20 51°20.833 3°1.701 6.8625 2.996556 29.142339 4.814512
2005-03-30 07:34:24 51°20.838 3°1.724 6.8659 2.996556 29.142339 4.814512
2005-03-30 07:34:29 51°20.845 3°1.749 6.8689 2.993819 29.110794 4.814512
2005-03-30 07:34:34 51°20.851 3°1.774 6.8657 2.996135 29.132065 4.713383
2005-03-30 07:34:39 51°20.856 3°1.798 6.865 2.995082 29.121482 4.612255
2005-03-30 07:34:45 51°20.864 3°1.828 6.8649 2.995609 29.126414 4.679674
2005-03-30 07:34:49 51°20.87 3°1.851 6.8687 2.996872 29.142134 4.511127
2005-03-30 07:34:54 51°20.876 3°1.876 6.8624 2.996872 29.142134 4.511127
2005-03-30 07:34:58 51°20.881 3°1.896 6.8676 2.996556 29.138743 4.511127
2005-03-30 07:35:05 51°20.89 3°1.929 6.8669 2.996135 29.133503 4.544836
2005-03-30 07:35:09 51°20.895 3°1.952 6.8741 2.995398 29.12631 4.511127
2005-03-30 07:35:14 51°20.901 3°1.978 6.8661 2.996661 29.141311 4.443708
2005-03-30 07:35:18 51°20.907 3°1.998 6.865 2.992977 29.101034 4.409999
2005-03-30 07:35:25 51°20.915 3°2.031 6.8683 2.992977 29.101034 4.409999
2005-03-30 07:35:29 51°20.921 3°2.054 6.8633 2.992872 29.100622 4.443708
2005-03-30 07:35:34 51°20.927 3°2.079 6.8684 2.996661 29.141311 4.376289
2005-03-30 07:35:38 51°20.932 3°2.1 6.8653 2.99603 29.13381 4.376289
2005-03-30 07:35:44 51°20.94 3°2.13 6.8682 2.995293 29.123742 4.409999
2005-03-30 07:35:50 51°20.946 3°2.157 6.8648 2.995819 29.129393 4.376289
2005-03-30 07:35:54 51°20.952 3°2.181 6.8665 2.995819 29.129393 4.376289
2005-03-30 07:35:59 51°20.959 3°2.207 6.8655 2.992977 29.100316 4.376289
2005-03-30 07:36:04 51°20.965 3°2.232 6.8703 2.992661 29.097644 4.409999
2005-03-30 07:36:09 51°20.971 3°2.254 6.8684 2.996661 29.140592 4.544836
2005-03-30 07:36:14 51°20.978 3°2.282 6.8653 2.993188 29.103295 4.511127
2005-03-30 07:36:19 51°20.983 3°2.306 6.8666 2.995398 29.125591 4.578546
2005-03-30 07:36:25 51°20.99 3°2.336 6.8624 2.995398 29.125591 4.578546
2005-03-30 07:36:29 51°20.996 3°2.359 6.8661 2.992556 29.095796 4.511127
2005-03-30 07:36:35 51°21.002 3°2.387 6.8557 2.994661 29.119117 4.511127
2005-03-30 07:36:38 51°21.007 3°2.404 6.8651 2.996345 29.137201 4.578546
2005-03-30 07:36:45 51°21.015 3°2.437 6.8583 2.99624 29.136071 4.645965
2005-03-30 07:36:49 51°21.021 3°2.46 6.8627 2.996135 29.13566 4.679674
2005-03-30 07:36:54 51°21.027 3°2.486 6.8596 2.996135 29.13566 4.679674
2005-03-30 07:37:00 51°21.035 3°2.514 6.8638 2.995714 29.131857 4.679674
2005-03-30 07:37:05 51°21.041 3°2.54 6.8641 2.992661 29.09908 4.848221
2005-03-30 07:37:09 51°21.047 3°2.563 6.8633 2.995819 29.134426 4.713383
2005-03-30 07:37:14 51°21.053 3°2.588 6.8616 2.992661 29.100517 4.780802
2005-03-30 07:37:19 51°21.059 3°2.613 6.8705 2.994872 29.12569 4.747093
2005-03-30 07:37:25 51°21.065 3°2.64 6.8714 2.994872 29.12569 4.747093
2005-03-30 07:37:29 51°21.07 3°2.66 6.8634 2.995082 29.12867 4.780802
2005-03-30 07:37:34 51°21.077 3°2.688 6.8662 2.995082 29.127232 4.679674
2005-03-30 07:37:39 51°21.083 3°2.712 6.8643 2.995398 29.129185 4.679674
2005-03-30 07:37:45 51°21.09 3°2.742 6.8666 2.993293 29.10658 4.679674
2005-03-30 07:37:50 51°21.096 3°2.767 6.8603 2.995398 29.129185 4.645965
2005-03-30 07:37:55 51°21.102 3°2.793 6.8694 2.995398 29.129185 4.645965
2005-03-30 07:37:58 51°21.107 3°2.81 6.8675 2.992766 29.098774 4.679674
2005-03-30 07:38:05 51°21.115 3°2.843 6.8687 2.993609 29.109252 4.645965
2005-03-30 07:38:10 51°21.121 3°2.868 6.8712 2.995293 29.126617 4.612255
2005-03-30 07:38:14 51°21.126 3°2.892 6.8718 2.993188 29.104731 4.645965
2005-03-30 07:38:18 51°21.131 3°2.912 6.8728 2.990556 29.077196 4.612255
2005-03-30 07:38:24 51°21.139 3°2.943 6.8679 2.990556 29.077196 4.612255
2005-03-30 07:38:30 51°21.146 3°2.972 6.8688 2.994661 29.120554 4.544836
2005-03-30 07:38:34 51°21.151 3°2.995 6.8657 2.991924 29.089733 4.578546
2005-03-30 07:38:40 51°21.158 3°3.022 6.8715 2.991714 29.086755 4.578546
2005-03-30 07:38:44 51°21.164 3°3.045 6.8761 2.99203 29.089428 4.578546
2005-03-30 07:38:49 51°21.17 3°3.07 6.8703 2.992135 29.08984 4.612255
2005-03-30 07:38:54 51°21.176 3°3.096 6.8668 2.992135 29.08984 4.612255
2005-03-30 07:38:59 51°21.183 3°3.121 6.8728 2.994135 29.112029 4.645965
2005-03-30 07:39:05 51°21.189 3°3.149 6.8716 2.99424 29.112441 4.645965
2005-03-30 07:39:09 51°21.194 3°3.169 6.8752 2.989503 29.063026 4.612255
2005-03-30 07:39:14 51°21.201 3°3.196 6.8699 2.993188 29.10114 4.645965
2005-03-30 07:39:18 51°21.206 3°3.217 6.8684 2.99424 29.111722 4.612255
2005-03-30 07:39:25 51°21.214 3°3.249 6.8741 2.99424 29.111722 4.612255
2005-03-30 07:39:29 51°21.218 3°3.27 6.8739 2.991819 29.08645 4.645965
2005-03-30 07:39:34 51°21.224 3°3.298 6.8758 2.993924 29.107614 4.612255
2005-03-30 07:39:39 51°21.23 3°3.324 6.8732 2.99403 29.108744 4.645965
2005-03-30 07:39:44 51°21.235 3°3.35 6.8745 2.993187 29.099704 4.578546
2005-03-30 07:39:49 51°21.24 3°3.373 6.8699 2.993819 29.10792 4.578546
2005-03-30 07:39:54 51°21.246 3°3.401 6.8697 2.993819 29.10792 4.578546
2005-03-30 07:39:58 51°21.25 3°3.422 6.8699 2.993924 29.108332 4.511127
2005-03-30 07:40:04 51°21.257 3°3.453 6.8714 2.990977 29.07454 4.409999
2005-03-30 07:40:10 51°21.263 3°3.481 6.8696 2.99424 29.108849 4.376289
2005-03-30 07:40:14 51°21.268 3°3.504 6.8699 2.992872 29.094878 4.376289
2005-03-30 07:40:19 51°21.273 3°3.53 6.8707 2.994135 29.108437 4.308871
2005-03-30 07:40:24 51°21.278 3°3.555 6.8728 2.994135 29.108437 4.308871
2005-03-30 07:40:29 51°21.283 3°3.579 6.8727 2.994977 29.119633 4.308871
2005-03-30 07:40:35 51°21.289 3°3.61 6.8663 2.992661 29.094772 4.308871
2005-03-30 07:40:38 51°21.293 3°3.628 6.8611 2.993609 29.10566 4.241452
2005-03-30 07:40:44 51°21.299 3°3.658 6.8671 2.993714 29.107509 4.275161
2005-03-30 07:40:50 51°21.306 3°3.687 6.863 2.994977 29.121789 4.275161
2005-03-30 07:40:54 51°21.311 3°3.71 6.8628 2.994977 29.121789 4.275161
2005-03-30 07:40:59 51°21.316 3°3.736 6.8626 2.995609 29.127133 4.207742
2005-03-30 07:41:04 51°21.321 3°3.761 6.8663 2.991082 29.077823 4.207742
2005-03-30 07:41:09 51°21.326 3°3.785 6.8637 2.995609 29.12857 4.207742
2005-03-30 07:41:14 51°21.332 3°3.813 6.8636 2.993503 29.108122 4.275161
2005-03-30 07:41:19 51°21.337 3°3.839 6.8636 2.992872 29.101341 4.275161
2005-03-30 07:41:25 51°21.343 3°3.867 6.8673 2.992872 29.101341 4.275161
2005-03-30 07:41:29 51°21.348 3°3.89 6.8695 2.994451 29.119013 4.207742
2005-03-30 07:41:35 51°21.354 3°3.919 6.8751 2.99403 29.115929 4.241452
2005-03-30 07:41:38 51°21.357 3°3.936 6.8726 2.991293 29.085107 4.275161
2005-03-30 07:41:44 51°21.364 3°3.967 6.8757 2.992345 29.096408 4.34258
2005-03-30 07:41:49 51°21.369 3°3.99 6.872 2.991503 29.087367 4.376289
2005-03-30 07:41:55 51°21.375 3°4.022 6.8681 2.991503 29.087367 4.376289
2005-03-30 07:42:00 51°21.38 3°4.047 6.8719 2.991398 29.085519 4.376289
2005-03-30 07:42:05 51°21.386 3°4.072 6.8651 2.990977 29.078845 4.308871
2005-03-30 07:42:10 51°21.391 3°4.098 6.8642 2.991082 29.07854 4.34258
2005-03-30 07:42:14 51°21.396 3°4.121 6.8639 2.994977 29.118915 4.409999
2005-03-30 07:42:20 51°21.401 3°4.149 6.8633 2.995293 29.121586 4.443708
2005-03-30 07:42:24 51°21.406 3°4.173 6.8621 2.995293 29.121586 4.443708
2005-03-30 07:42:30 51°21.412 3°4.201 6.8583 2.990766 29.073716 4.409999
2005-03-30 07:42:35 51°21.418 3°4.227 6.8618 2.995082 29.120045 4.409999
2005-03-30 07:42:38 51°21.421 3°4.245 6.8604 2.993188 29.102576 4.477418
2005-03-30 07:42:44 51°21.428 3°4.275 6.8624 2.990661 29.076891 4.443708
2005-03-30 07:42:49 51°21.433 3°4.301 6.8639 2.992661 29.099798 4.511127
2005-03-30 07:42:54 51°21.438 3°4.327 6.8652 2.992661 29.099798 4.511127
2005-03-30 07:42:59 51°21.444 3°4.353 6.8706 2.990661 29.079044 4.511127
2005-03-30 07:43:04 51°21.449 3°4.378 6.8666 2.995082 29.127951 4.679674
2005-03-30 07:43:09 51°21.455 3°4.404 6.8698 2.992556 29.100823 4.645965
2005-03-30 07:43:14 51°21.46 3°4.429 6.8712 2.991503 29.089521 4.578546
2005-03-30 07:43:19 51°21.465 3°4.455 6.8686 2.994767 29.123841 4.612255
2005-03-30 07:43:24 51°21.471 3°4.48 6.8698 2.994767 29.123841 4.612255
2005-03-30 07:43:29 51°21.476 3°4.506 6.8705 2.989924 29.071133 4.679674
2005-03-30 07:43:35 51°21.482 3°4.535 6.8644 2.993924 29.112643 4.645965
2005-03-30 07:43:39 51°21.487 3°4.555 6.8668 2.99224 29.093842 4.612255
2005-03-30 07:43:44 51°21.493 3°4.582 6.8686 2.993503 29.105967 4.679674
2005-03-30 07:43:49 51°21.498 3°4.608 6.8712 2.991819 29.087168 4.612255
2005-03-30 07:43:54 51°21.503 3°4.633 6.8753 2.991819 29.087168 4.612255
2005-03-30 07:43:59 51°21.508 3°4.657 6.875 2.988345 29.049881 4.612255
2005-03-30 07:44:05 51°21.514 3°4.687 6.8707 2.992556 29.095078 4.578546
2005-03-30 07:44:09 51°21.519 3°4.71 6.8732 2.992135 29.091994 4.612255
2005-03-30 07:44:14 51°21.524 3°4.736 6.8707 2.990345 29.072066 4.679674
2005-03-30 07:44:20 51°21.53 3°4.764 6.8745 2.991924 29.089016 4.578546
2005-03-30 07:44:24 51°21.535 3°4.787 6.8764 2.991924 29.089016 4.578546
2005-03-30 07:44:29 51°21.54 3°4.812 6.8801 2.988345 29.047014 4.612255
2005-03-30 07:44:34 51°21.546 3°4.838 6.8762 2.992451 29.090358 4.477418
2005-03-30 07:44:39 51°21.551 3°4.864 6.8837 2.98803 29.042908 4.544836
2005-03-30 07:44:45 51°21.557 3°4.891 6.8816 2.988977 29.053075 4.477418
2005-03-30 07:44:49 51°21.561 3°4.912 6.8807 2.99024 29.066632 4.409999
2005-03-30 07:44:54 51°21.567 3°4.94 6.8812 2.99024 29.066632 4.409999
2005-03-30 07:44:59 51°21.572 3°4.963 6.8857 2.99003 29.062938 4.34258
2005-03-30 07:45:05 51°21.578 3°4.993 6.8882 2.992345 29.086358 4.275161
2005-03-30 07:45:10 51°21.584 3°5.019 6.8868 2.99024 29.063763 4.207742
2005-03-30 07:45:14 51°21.588 3°5.042 6.8909 2.990135 29.0612 4.207742
2005-03-30 07:45:19 51°21.594 3°5.067 6.8905 2.990451 29.063155 4.241452
2005-03-30 07:45:25 51°21.599 3°5.095 6.8921 2.990451 29.063155 4.241452
2005-03-30 07:45:29 51°21.604 3°5.118 6.8926 2.992029 29.079381 4.174033
2005-03-30 07:45:34 51°21.609 3°5.144 6.8868 2.989608 29.051968 4.005486
2005-03-30 07:45:40 51°21.615 3°5.172 6.8966 2.990135 29.056182 3.938067
2005-03-30 07:45:44 51°21.619 3°5.195 6.8904 2.989819 29.051361 3.971777
2005-03-30 07:45:49 51°21.624 3°5.221 6.8908 2.98824 29.03299 3.904358
2005-03-30 07:45:55 51°21.63 3°5.249 6.8859 2.98824 29.03299 3.904358
2005-03-30 07:45:58 51°21.633 3°5.266 6.8836 2.990556 29.0564 3.904358
2005-03-30 07:46:05 51°21.641 3°5.299 6.8852 2.990872 29.059788 3.80323
2005-03-30 07:46:09 51°21.645 3°5.319 6.883 2.988766 29.037919 3.971777
2005-03-30 07:46:14 51°21.651 3°5.347 6.8862 2.991503 29.065846 3.80323
2005-03-30 07:46:20 51°21.657 3°5.375 6.8851 2.988766 29.037203 3.836939
2005-03-30 07:46:24 51°21.661 3°5.398 6.8897 2.988766 29.037203 3.836939
2005-03-30 07:46:29 51°21.666 3°5.423 6.8857 2.992556 29.080008 3.836939
2005-03-30 07:46:34 51°21.672 3°5.448 6.8877 2.988029 29.032163 3.836939
2005-03-30 07:46:39 51°21.676 3°5.472 6.8827 2.990345 29.058441 3.938067
2005-03-30 07:46:45 51°21.682 3°5.501 6.8818 2.993082 29.08709 3.836939
2005-03-30 07:46:49 51°21.686 3°5.521 6.877 2.992135 29.077642 3.938067
2005-03-30 07:46:54 51°21.692 3°5.549 6.8824 2.992135 29.077642 3.938067
2005-03-30 07:46:58 51°21.696 3°5.569 6.884 2.993187 29.086068 3.904358
2005-03-30 07:47:05 51°21.703 3°5.602 6.8802 2.98845 29.035964 3.904358
2005-03-30 07:47:09 51°21.707 3°5.622 6.8875 2.993293 29.088632 3.870648
2005-03-30 07:47:14 51°21.712 3°5.647 6.8864 2.990766 29.062959 3.904358
2005-03-30 07:47:19 51°21.717 3°5.675 6.8834 2.99224 29.080206 3.904358
2005-03-30 07:47:25 51°21.723 3°5.702 6.8806 2.99224 29.080206 3.904358
2005-03-30 07:47:29 51°21.727 3°5.725 6.8862 2.991924 29.077534 3.904358
2005-03-30 07:47:35 51°21.733 3°5.753 6.8815 2.990451 29.061721 3.904358
2005-03-30 07:47:38 51°21.736 3°5.77 6.8809 2.994029 29.09941 3.836939
2005-03-30 07:47:45 51°21.743 3°5.802 6.8797 2.989608 29.051968 3.870648
2005-03-30 07:47:50 51°21.748 3°5.828 6.8826 2.992766 29.083702 3.870648
2005-03-30 07:47:54 51°21.753 3°5.85 6.8832 2.992766 29.083702 3.870648
2005-03-30 07:48:00 51°21.759 3°5.878 6.8741 2.991293 29.068606 3.870648
2005-03-30 07:48:05 51°21.764 3°5.902 6.8819 2.994766 29.105881 3.870648
2005-03-30 07:48:10 51°21.769 3°5.927 6.8814 2.994766 29.107317 3.904358
2005-03-30 07:48:14 51°21.774 3°5.95 6.8781 2.991293 29.070757 3.80323
2005-03-30 07:48:19 51°21.779 3°5.975 6.8806 2.989608 29.052685 3.870648
2005-03-30 07:48:24 51°21.784 3°6 6.8765 2.989608 29.052685 3.870648
2005-03-30 07:48:29 51°21.789 3°6.023 6.8729 2.989924 29.056073 3.76952
2005-03-30 07:48:35 51°21.794 3°6.052 6.8749 2.99003 29.059353 3.836939
2005-03-30 07:48:38 51°21.797 3°6.069 6.8778 2.993924 29.100433 3.76952
2005-03-30 07:48:44 51°21.804 3°6.099 6.8772 2.992029 29.079381 3.735811
2005-03-30 07:48:49 51°21.809 3°6.125 6.878 2.991608 29.076297 3.76952
2005-03-30 07:48:54 51°21.814 3°6.149 6.881 2.991608 29.076297 3.76952
2005-03-30 07:48:59 51°21.819 3°6.175 6.8832 2.989924 29.059658 3.735811
2005-03-30 07:49:04 51°21.825 3°6.199 6.8861 2.991819 29.082144 3.735811
2005-03-30 07:49:08 51°21.829 3°6.219 6.8903 2.989398 29.056877 3.735811
2005-03-30 07:49:15 51°21.836 3°6.252 6.8918 2.990661 29.069717 3.735811
2005-03-30 07:49:20 51°21.842 3°6.276 6.8985 2.990977 29.071671 3.735811
2005-03-30 07:49:24 51°21.846 3°6.299 6.8985 2.990977 29.071671 3.735811
2005-03-30 07:49:28 51°21.85 3°6.319 6.8984 2.989924 29.059658 3.567264
2005-03-30 07:49:34 51°21.855 3°6.349 6.908 2.993924 29.101151 3.567264
2005-03-30 07:49:39 51°21.859 3°6.372 6.905 2.990451 29.061721 3.634683
2005-03-30 07:49:44 51°21.864 3°6.399 6.9171 2.99045 29.05742 3.634683
2005-03-30 07:49:49 51°21.867 3°6.422 6.9108 2.99245 29.076727 3.533554
2005-03-30 07:49:54 51°21.872 3°6.45 6.9181 2.99245 29.076727 3.533554
2005-03-30 07:50:00 51°21.876 3°6.478 6.9131 2.990556 29.052101 3.634683
2005-03-30 07:50:05 51°21.88 3°6.503 6.9162 2.988871 29.032605 3.533554
2005-03-30 07:50:09 51°21.883 3°6.523 6.9207 2.991082 29.050583 3.634683
2005-03-30 07:50:15 51°21.888 3°6.554 6.9248 2.988135 29.016833 3.668392
2005-03-30 07:50:19 51°21.89 3°6.575 6.9218 2.989713 29.032331 3.702101
2005-03-30 07:50:25 51°21.895 3°6.605 6.9311 2.989713 29.032331 3.702101
2005-03-30 07:50:29 51°21.897 3°6.625 6.9253 2.987819 29.009157 3.702101
2005-03-30 07:50:35 51°21.901 3°6.656 6.9309 2.988345 29.013369 3.702101
2005-03-30 07:50:40 51°21.905 3°6.681 6.9311 2.989082 29.019837 3.80323
2005-03-30 07:50:45 51°21.908 3°6.706 6.9352 2.989398 29.021077 3.80323
2005-03-30 07:50:49 51°21.91 3°6.727 6.9221 2.988345 29.00765 3.80323
2005-03-30 07:50:54 51°21.913 3°6.754 6.9135 2.988345 29.00765 3.80323
2005-03-30 07:51:00 51°21.916 3°6.782 6.8995 2.986976 28.990842 3.80323
2005-03-30 07:51:04 51°21.919 3°6.804 6.8912 2.986976 28.989413 3.870648
2005-03-30 07:51:10 51°21.923 3°6.832 6.8795 2.98845 29.003776 3.904358
2005-03-30 07:51:14 51°21.926 3°6.854 6.8775 2.986555 28.980618 3.836939
2005-03-30 07:51:20 51°21.93 3°6.881 6.8674 2.986555 28.980618 3.80323
2005-03-30 07:51:25 51°21.934 3°6.906 6.8779 2.986555 28.980618 3.80323
2005-03-30 07:51:29 51°21.937 3°6.926 6.8703 2.986029 28.979262 3.836939
2005-03-30 07:51:35 51°21.942 3°6.956 6.8667 2.986134 28.990389 3.836939
2005-03-30 07:51:38 51°21.945 3°6.972 6.8654 2.98845 29.02308 4.039195
2005-03-30 07:51:45 51°21.95 3°7.004 6.8582 2.986661 29.013906 4.34258
2005-03-30 07:51:49 51°21.953 3°7.026 6.8606 2.986977 29.024451 4.443708
2005-03-30 07:51:54 51°21.954 3°7.051 6.8658 2.986977 29.024451 4.443708
2005-03-30 07:51:59 51°21.956 3°7.076 6.8574 2.986977 29.028747 4.544836
2005-03-30 07:52:05 51°21.958 3°7.103 6.8529 2.988977 29.052358 4.679674
2005-03-30 07:52:10 51°21.959 3°7.128 6.8568 2.98824 29.048034 4.713383
2005-03-30 07:52:14 51°21.96 3°7.15 6.8419 2.986135 29.027589 4.747093
2005-03-30 07:52:19 51°21.961 3°7.175 6.8422 2.983924 29.005297 4.645965
2005-03-30 07:52:25 51°21.962 3°7.202 6.8303 2.983924 29.005297 4.645965
2005-03-30 07:52:29 51°21.963 3°7.225 6.8294 2.987714 29.045969 4.645965
2005-03-30 07:52:35 51°21.965 3°7.253 6.8231 2.983714 29.00447 4.477418
2005-03-30 07:52:39 51°21.966 3°7.274 6.8282 2.981609 28.985454 4.477418
2005-03-30 07:52:45 51°21.968 3°7.302 6.8229 2.982556 28.999201 4.443708
2005-03-30 07:52:50 51°21.969 3°7.326 6.8236 2.983925 29.018189 4.308871
2005-03-30 07:52:54 51°21.97 3°7.348 6.8304 2.983925 29.018189 4.308871
2005-03-30 07:52:59 51°21.971 3°7.374 6.8282 2.985504 29.041596 4.308871
2005-03-30 07:53:04 51°21.972 3°7.398 6.8385 2.987293 29.068713 4.275161
2005-03-30 07:53:09 51°21.973 3°7.421 6.8314 2.990872 29.110764 4.174033
2005-03-30 07:53:14 51°21.975 3°7.448 6.8296 2.987925 29.080528 4.140324
2005-03-30 07:53:19 51°21.976 3°7.471 6.8407 2.989083 29.092971 4.072905
2005-03-30 07:53:24 51°21.978 3°7.497 6.8459 2.989083 29.092971 4.072905
2005-03-30 07:53:29 51°21.979 3°7.519 6.8397 2.989398 29.096364 4.072905
2005-03-30 07:53:34 51°21.98 3°7.547 6.8446 2.986872 29.06778 4.106614
2005-03-30 07:53:39 51°21.982 3°7.57 6.8472 2.987188 29.067582 4.072905
2005-03-30 07:53:45 51°21.983 3°7.599 6.8434 2.987083 29.066451 4.005486
2005-03-30 07:53:49 51°21.984 3°7.618 6.8437 2.987293 29.066559 3.971777
2005-03-30 07:53:55 51°21.985 3°7.649 6.8419 2.987293 29.066559 3.971777
2005-03-30 07:53:58 51°21.986 3°7.665 6.8477 2.988451 29.076125 3.971777
2005-03-30 07:54:05 51°21.987 3°7.697 6.8445 2.985188 29.041073 3.904358
2005-03-30 07:54:10 51°21.988 3°7.722 6.8474 2.986556 29.053619 3.870648
2005-03-30 07:54:14 51°21.989 3°7.744 6.8493 2.985925 29.046835 3.870648
2005-03-30 07:54:20 51°21.991 3°7.772 6.8564 2.984661 29.031835 3.870648
2005-03-30 07:54:24 51°21.992 3°7.794 6.8553 2.984661 29.031835 3.870648
2005-03-30 07:54:29 51°21.993 3°7.819 6.8565 2.985293 29.038618 3.971777
2005-03-30 07:54:34 51°21.994 3°7.843 6.8617 2.985714 29.043139 3.870648
2005-03-30 07:54:39 51°21.994 3°7.869 6.8591 2.98624 29.048075 3.836939
2005-03-30 07:54:44 51°21.996 3°7.893 6.8641 2.984872 29.031228 3.80323
2005-03-30 07:54:49 51°21.996 3°7.918 6.8647 2.985082 29.031338 3.836939
2005-03-30 07:54:55 51°21.996 3°7.946 6.8659 2.985082 29.031338 3.836939
2005-03-30 07:54:58 51°21.997 3°7.962 6.8593 2.988346 29.063508 3.76952
2005-03-30 07:55:05 51°21.999 3°7.995 6.8643 2.988977 29.068855 3.76952
2005-03-30 07:55:09 51°21.999 3°8.015 6.8607 2.988346 29.060638 3.76952
2005-03-30 07:55:14 51°22.001 3°8.042 6.8642 2.984451 29.017391 3.735811
2005-03-30 07:55:19 51°22.001 3°8.065 6.8616 2.985819 29.029215 3.76952
2005-03-30 07:55:25 51°22.003 3°8.094 6.8592 2.985819 29.029215 3.76952
2005-03-30 07:55:29 51°22.004 3°8.116 6.8593 2.98603 29.030758 3.836939
2005-03-30 07:55:34 51°22.005 3°8.141 6.86 2.985188 29.022435 3.76952
2005-03-30 07:55:39 51°22.007 3°8.166 6.8636 2.985398 29.024695 3.938067
2005-03-30 07:55:44 51°22.008 3°8.191 6.8626 2.984661 29.016786 3.938067
2005-03-30 07:55:50 51°22.009 3°8.219 6.8607 2.984872 29.019046 3.870648
2005-03-30 07:55:54 51°22.011 3°8.241 6.8646 2.984872 29.019046 3.870648
2005-03-30 07:56:00 51°22.012 3°8.269 6.869 2.987082 29.044208 3.938067
2005-03-30 07:56:05 51°22.014 3°8.294 6.8673 2.98824 29.055921 3.938067
2005-03-30 07:56:09 51°22.015 3°8.316 6.8678 2.984345 29.014829 4.005486
2005-03-30 07:56:14 51°22.017 3°8.342 6.8702 2.984661 29.017502 3.971777
2005-03-30 07:56:20 51°22.018 3°8.369 6.87 2.985082 29.022022 4.005486
2005-03-30 07:56:25 51°22.02 3°8.394 6.864 2.985082 29.022022 4.005486
2005-03-30 07:56:29 51°22.021 3°8.417 6.8622 2.982451 28.99306 3.80323
2005-03-30 07:56:34 51°22.022 3°8.442 6.8581 2.979924 28.963089 3.938067
2005-03-30 07:56:39 51°22.024 3°8.465 6.864 2.979819 28.96053 3.870648
2005-03-30 07:56:44 51°22.025 3°8.492 6.8529 2.987609 29.042689 3.904358
2005-03-30 07:56:49 51°22.026 3°8.517 6.8581 2.982766 28.99001 3.80323
2005-03-30 07:56:54 51°22.027 3°8.543 6.8548 2.982766 28.99001 3.80323
2005-03-30 07:57:00 51°22.029 3°8.57 6.856 2.980451 28.966592 3.904358
2005-03-30 07:57:04 51°22.031 3°8.593 6.8513 2.985188 29.018854 3.870648
2005-03-30 07:57:10 51°22.032 3°8.62 6.8504 2.982451 28.99306 3.836939
2005-03-30 07:57:14 51°22.034 3°8.643 6.8498 2.987082 29.044208 3.80323
2005-03-30 07:57:18 51°22.035 3°8.663 6.8572 2.98003 28.971369 3.80323